Time,TemperatureF,DewpointF,PressureIn,WindDirection,WindDirectionDegrees,WindSpeedMPH,WindSpeedGustMPH,Humidity,HourlyPrecipIn,Conditions,Clouds,dailyrainin,SolarRadiationWatts/m^2,SoftwareType,DateUTC
2013-03-20 00:02:00,32.7,31.9,30.24,NW,311,0.0,0.0,97,0.00,RA,,0.00,0.0,WeatherDisplay:10.37,2013-03-20 05:02:00,
2013-03-20 00:03:00,32.7,31.9,30.24,NW,311,0.0,0.0,97,0.00,RA,,0.00,0.0,WeatherDisplay:10.37,2013-03-20 05:03:00,
2013-03-20 00:04:00,32.6,31.8,30.24,NW,311,0.0,0.0,97,0.00,RA,,0.00,0.0,WeatherDisplay:10.37,2013-03-20 05:04:00,
2013-03-20 00:07:00,32.5,31.7,30.24,NW,311,0.0,0.0,97,0.00,RA,,0.00,0.0,WeatherDisplay:10.37,2013-03-20 05:07:00,
2013-03-20 00:08:00,32.5,31.7,30.24,NW,311,0.0,0.0,97,0.00,RA,,0.00,0.0,WeatherDisplay:10.37,2013-03-20 05:08:00,
2013-03-20 00:09:00,32.4,31.6,30.24,NW,311,0.0,0.0,97,0.00,RA,,0.00,0.0,WeatherDisplay:10.37,2013-03-20 05:09:00,
2013-03-20 00:12:00,32.5,31.7,30.24,NW,311,0.0,0.0,97,0.00,CLR,,0.00,0.0,WeatherDisplay:10.37,2013-03-20 05:12:00,
2013-03-20 00:13:00,32.5,31.7,30.24,NW,311,0.0,0.0,97,0.00,CLR,,0.00,0.0,WeatherDisplay:10.37,2013-03-20 05:13:00,
2013-03-20 00:15:00,32.6,31.8,30.24,NW,311,0.0,0.0,97,0.00,CLR,,0.00,0.0,WeatherDisplay:10.37,2013-03-20 05:15:00,
2013-03-20 00:18:00,32.5,31.7,30.24,NW,311,0.0,0.0,97,0.00,CLR,,0.00,0.0,WeatherDisplay:10.37,2013-03-20 05:18:00,
2013-03-20 00:20:00,32.5,31.7,30.24,NW,311,0.0,0.0,97,0.00,CLR,,0.00,0.0,WeatherDisplay:10.37,2013-03-20 05:20:00,
2013-03-20 00:23:00,32.7,31.9,30.24,NW,311,0.0,0.0,97,0.00,CLR,,0.00,0.0,WeatherDisplay:10.37,2013-03-20 05:23:00,
2013-03-20 00:25:00,32.7,31.9,30.25,NW,311,0.0,0.0,97,0.00,CLR,,0.00,0.0,WeatherDisplay:10.37,2013-03-20 05:25:00,
2013-03-20 00:28:00,32.6,31.8,30.25,NW,311,0.0,0.0,97,0.00,CLR,,0.00,0.0,WeatherDisplay:10.37,2013-03-20 05:28:00,
2013-03-20 00:29:00,32.5,31.7,30.25,NW,311,0.0,0.0,97,0.00,CLR,,0.00,0.0,WeatherDisplay:10.37,2013-03-20 05:29:00,
2013-03-20 00:31:00,32.6,31.8,30.25,WNW,290,0.0,1.2,97,0.00,CLR,,0.00,0.0,WeatherDisplay:10.37,2013-03-20 05:31:00,
2013-03-20 00:33:00,32.6,31.8,30.25,WNW,290,0.0,0.0,97,0.00,CLR,,0.00,0.0,WeatherDisplay:10.37,2013-03-20 05:33:00,
2013-03-20 00:34:00,32.6,31.8,30.25,WNW,290,0.0,0.0,97,0.00,CLR,,0.00,0.0,WeatherDisplay:10.37,2013-03-20 05:34:00,
2013-03-20 00:36:00,32.5,31.7,30.25,WNW,290,0.0,0.0,97,0.00,CLR,,0.00,0.0,WeatherDisplay:10.37,2013-03-20 05:36:00,
2013-03-20 00:38:00,32.4,31.6,30.25,West,263,0.0,1.0,97,0.00,CLR,,0.00,0.0,WeatherDisplay:10.37,2013-03-20 05:38:00,
2013-03-20 00:39:00,32.5,31.7,30.25,WSW,240,1.0,2.3,97,0.00,CLR,,0.00,0.0,WeatherDisplay:10.37,2013-03-20 05:39:00,
2013-03-20 00:41:00,32.5,31.7,30.25,WSW,240,0.0,0.0,97,0.00,CLR,,0.00,0.0,WeatherDisplay:10.37,2013-03-20 05:41:00,
2013-03-20 00:43:00,32.5,31.7,30.25,WSW,240,0.0,0.0,97,0.00,CLR,,0.00,0.0,WeatherDisplay:10.37,2013-03-20 05:43:00,
2013-03-20 00:44:00,32.5,31.7,30.25,WSW,240,0.0,0.0,97,0.00,CLR,,0.00,0.0,WeatherDisplay:10.37,2013-03-20 05:44:00,
2013-03-20 00:46:00,32.5,31.7,30.25,WSW,240,0.0,0.0,97,0.00,CLR,,0.00,0.0,WeatherDisplay:10.37,2013-03-20 05:46:00,
2013-03-20 00:48:00,32.5,31.7,30.25,WSW,240,0.1,1.2,97,0.00,CLR,,0.00,0.0,WeatherDisplay:10.37,2013-03-20 05:48:00,
2013-03-20 00:49:00,32.4,31.6,30.25,WSW,240,0.0,1.2,97,0.00,CLR,,0.00,0.0,WeatherDisplay:10.37,2013-03-20 05:49:00,
2013-03-20 00:52:00,32.5,31.7,30.25,WSW,240,1.2,1.2,97,0.00,CLR,,0.00,0.0,WeatherDisplay:10.37,2013-03-20 05:52:00,
2013-03-20 00:53:00,32.6,31.8,30.25,WSW,241,0.3,2.3,97,0.00,CLR,,0.00,0.0,WeatherDisplay:10.37,2013-03-20 05:53:00,
2013-03-20 00:54:00,32.6,31.8,30.25,WSW,241,0.0,2.3,97,0.00,CLR,,0.00,0.0,WeatherDisplay:10.37,2013-03-20 05:54:00,
2013-03-20 00:58:00,32.8,32.0,30.25,WNW,291,0.3,1.2,97,0.00,CLR,,0.00,0.0,WeatherDisplay:10.37,2013-03-20 05:58:00,
2013-03-20 00:59:00,32.8,32.0,30.25,WNW,294,0.5,1.2,97,0.00,CLR,,0.00,0.0,WeatherDisplay:10.37,2013-03-20 05:59:00,
2013-03-20 01:03:00,33.1,32.3,30.25,WNW,286,0.8,2.3,97,0.00,CLR,,0.00,0.0,WeatherDisplay:10.37,2013-03-20 06:03:00,
2013-03-20 01:04:00,33.1,32.3,30.25,WNW,286,0.7,2.3,97,0.00,CLR,,0.00,0.0,WeatherDisplay:10.37,2013-03-20 06:04:00,
2013-03-20 01:09:00,33.4,32.6,30.26,West,265,1.2,2.3,97,0.00,CLR,,0.00,0.0,WeatherDisplay:10.37,2013-03-20 06:09:00,
2013-03-20 01:10:00,33.4,32.6,30.26,West,265,0.6,2.3,97,0.00,CLR,,0.00,0.0,WeatherDisplay:10.37,2013-03-20 06:10:00,
2013-03-20 01:14:00,33.7,32.9,30.26,WNW,296,1.7,3.5,97,0.00,CLR,,0.00,0.0,WeatherDisplay:10.37,2013-03-20 06:14:00,
2013-03-20 01:15:00,33.8,33.0,30.26,NW,321,1.0,4.6,97,0.00,CLR,,0.00,0.0,WeatherDisplay:10.37,2013-03-20 06:15:00,
2013-03-20 01:19:00,34.1,33.3,30.26,NNW,329,1.7,3.5,97,0.00,CLR,,0.00,0.0,WeatherDisplay:10.37,2013-03-20 06:19:00,
2013-03-20 01:20:00,34.1,33.3,30.26,NNW,329,0.2,3.5,97,0.00,CLR,,0.00,0.0,WeatherDisplay:10.37,2013-03-20 06:20:00,
2013-03-20 01:24:00,34.1,33.3,30.26,NW,307,0.4,2.3,97,0.00,CLR,,0.00,0.0,WeatherDisplay:10.37,2013-03-20 06:24:00,
2013-03-20 01:25:00,34.1,33.3,30.26,NW,307,0.1,2.3,97,0.00,CLR,,0.00,0.0,WeatherDisplay:10.37,2013-03-20 06:25:00,
2013-03-20 01:29:00,34.1,33.3,30.26,NW,317,3.5,4.6,97,0.00,CLR,,0.00,0.0,WeatherDisplay:10.37,2013-03-20 06:29:00,
2013-03-20 01:30:00,34.1,33.3,30.26,NW,305,0.5,6.9,97,0.00,CLR,,0.00,0.0,WeatherDisplay:10.37,2013-03-20 06:30:00,
2013-03-20 01:34:00,34.0,33.0,30.26,NNW,342,1.3,3.5,96,0.00,CLR,,0.00,0.0,WeatherDisplay:10.37,2013-03-20 06:34:00,
2013-03-20 01:35:00,34.0,33.0,30.27,NNW,342,0.3,3.5,96,0.00,CLR,,0.00,0.0,WeatherDisplay:10.37,2013-03-20 06:35:00,
2013-03-20 01:39:00,33.9,32.9,30.27,NW,307,1.2,3.5,96,0.00,CLR,,0.00,0.0,WeatherDisplay:10.37,2013-03-20 06:39:00,
2013-03-20 01:40:00,33.9,32.9,30.27,NW,306,0.6,2.3,96,0.00,CLR,,0.00,0.0,WeatherDisplay:10.37,2013-03-20 06:40:00,
2013-03-20 01:44:00,33.7,32.7,30.27,NNW,346,1.1,4.0,96,0.00,CLR,,0.00,0.0,WeatherDisplay:10.37,2013-03-20 06:44:00,
2013-03-20 01:45:00,33.7,32.7,30.27,NW,310,1.4,3.5,96,0.00,CLR,,0.00,0.0,WeatherDisplay:10.37,2013-03-20 06:45:00,
2013-03-20 01:47:00,33.7,32.7,30.27,NW,325,0.3,3.5,96,0.00,CLR,,0.00,0.0,WeatherDisplay:10.37,2013-03-20 06:47:00,
2013-03-20 01:49:00,33.5,32.5,30.27,NW,323,2.0,5.0,96,0.00,CLR,,0.00,0.0,WeatherDisplay:10.37,2013-03-20 06:49:00,
2013-03-20 01:50:00,33.5,32.5,30.27,NNW,347,1.2,4.6,96,0.00,CLR,,0.00,0.0,WeatherDisplay:10.37,2013-03-20 06:50:00,
2013-03-20 01:51:00,33.5,32.5,30.27,NNW,337,0.9,2.3,96,0.00,CLR,,0.00,0.0,WeatherDisplay:10.37,2013-03-20 06:51:00,
2013-03-20 01:52:00,33.5,32.5,30.27,NW,307,0.1,2.3,96,0.00,CLR,,0.00,0.0,WeatherDisplay:10.37,2013-03-20 06:52:00,
2013-03-20 01:54:00,33.4,32.4,30.27,NNE,30,0.9,1.2,96,0.00,CLR,,0.00,0.0,WeatherDisplay:10.37,2013-03-20 06:54:00,
2013-03-20 01:55:00,33.4,32.4,30.27,NNE,30,0.3,2.3,96,0.00,CLR,,0.00,0.0,WeatherDisplay:10.37,2013-03-20 06:55:00,
2013-03-20 01:56:00,33.3,32.3,30.27,WNW,298,0.6,2.0,96,0.00,CLR,,0.00,0.0,WeatherDisplay:10.37,2013-03-20 06:56:00,
2013-03-20 01:57:00,33.3,32.3,30.27,WNW,294,0.5,3.5,96,0.00,CLR,,0.00,0.0,WeatherDisplay:10.37,2013-03-20 06:57:00,
2013-03-20 01:59:00,33.3,32.3,30.27,North,360,0.8,3.5,96,0.00,CLR,,0.00,0.0,WeatherDisplay:10.37,2013-03-20 06:59:00,
2013-03-20 02:00:00,33.3,32.3,30.27,North,350,1.0,3.5,96,0.00,CLR,,0.00,0.0,WeatherDisplay:10.37,2013-03-20 07:00:00,
2013-03-20 02:01:00,33.3,32.3,30.27,North,355,0.2,3.5,96,0.00,CLR,,0.00,0.0,WeatherDisplay:10.37,2013-03-20 07:01:00,
2013-03-20 02:02:00,33.2,32.2,30.27,North,9,1.6,3.5,96,0.00,CLR,,0.00,0.0,WeatherDisplay:10.37,2013-03-20 07:02:00,
2013-03-20 02:05:00,33.2,32.2,30.27,NNW,328,1.3,3.5,96,0.00,CLR,,0.00,0.0,WeatherDisplay:10.37,2013-03-20 07:05:00,
2013-03-20 02:07:00,33.2,32.2,30.27,NNW,331,0.9,3.5,96,0.00,CLR,,0.00,0.0,WeatherDisplay:10.37,2013-03-20 07:07:00,
2013-03-20 02:10:00,33.2,32.2,30.28,NNW,348,1.0,3.5,96,0.00,CLR,,0.00,0.0,WeatherDisplay:10.37,2013-03-20 07:10:00,
2013-03-20 02:12:00,33.2,32.2,30.28,NW,309,2.1,3.5,96,0.00,CLR,,0.00,0.0,WeatherDisplay:10.37,2013-03-20 07:12:00,
2013-03-20 02:15:00,33.2,32.2,30.28,North,355,0.8,3.5,96,0.00,CLR,,0.00,0.0,WeatherDisplay:10.37,2013-03-20 07:15:00,
2013-03-20 02:16:00,33.2,32.2,30.28,North,355,1.0,3.5,96,0.00,CLR,,0.00,0.0,WeatherDisplay:10.37,2013-03-20 07:16:00,
2013-03-20 02:17:00,33.2,32.2,30.28,NNW,338,2.2,5.0,96,0.00,CLR,,0.00,0.0,WeatherDisplay:10.37,2013-03-20 07:17:00,
2013-03-20 02:20:00,33.2,32.2,30.28,NNW,345,2.7,3.5,96,0.00,CLR,,0.00,0.0,WeatherDisplay:10.37,2013-03-20 07:20:00,
2013-03-20 02:21:00,33.2,32.2,30.28,NNW,346,2.7,3.5,96,0.00,CLR,,0.00,0.0,WeatherDisplay:10.37,2013-03-20 07:21:00,
2013-03-20 02:23:00,33.2,32.2,30.28,NW,320,1.4,2.3,96,0.00,CLR,,0.00,0.0,WeatherDisplay:10.37,2013-03-20 07:23:00,
2013-03-20 02:26:00,33.2,31.9,30.28,NNW,342,2.0,3.5,95,0.00,CLR,,0.00,0.0,WeatherDisplay:10.37,2013-03-20 07:26:00,
2013-03-20 02:28:00,33.1,31.8,30.28,NNW,336,1.3,4.0,95,0.00,CLR,,0.00,0.0,WeatherDisplay:10.37,2013-03-20 07:28:00,
2013-03-20 02:31:00,33.0,31.7,30.28,NNW,338,1.0,3.5,95,0.00,CLR,,0.00,0.0,WeatherDisplay:10.37,2013-03-20 07:31:00,
2013-03-20 02:33:00,33.0,31.7,30.28,NNW,328,3.1,3.5,95,0.00,CLR,,0.00,0.0,WeatherDisplay:10.37,2013-03-20 07:33:00,
2013-03-20 02:34:00,32.9,31.4,30.28,NNW,327,2.6,5.8,94,0.00,CLR,,0.00,0.0,WeatherDisplay:10.37,2013-03-20 07:34:00,
2013-03-20 02:36:00,32.9,31.6,30.29,NW,325,1.5,3.5,95,0.00,CLR,,0.00,0.0,WeatherDisplay:10.37,2013-03-20 07:36:00,
2013-03-20 02:37:00,32.9,31.6,30.29,NNW,327,1.7,3.5,95,0.00,CLR,,0.00,0.0,WeatherDisplay:10.37,2013-03-20 07:37:00,
2013-03-20 02:38:00,32.8,31.3,30.29,NNW,330,1.8,3.5,94,0.00,CLR,,0.00,0.0,WeatherDisplay:10.37,2013-03-20 07:38:00,
2013-03-20 02:39:00,32.8,31.3,30.29,NNW,333,2.4,4.6,94,0.00,CLR,,0.00,0.0,WeatherDisplay:10.37,2013-03-20 07:39:00,
2013-03-20 02:42:00,32.7,31.2,30.29,North,5,4.2,6.0,94,0.00,CLR,,0.00,0.0,WeatherDisplay:10.37,2013-03-20 07:42:00,
2013-03-20 02:43:00,32.8,31.3,30.29,North,360,3.4,5.8,94,0.00,CLR,,0.00,0.0,WeatherDisplay:10.37,2013-03-20 07:43:00,
2013-03-20 02:44:00,32.8,31.3,30.29,NNW,328,4.1,4.6,94,0.00,CLR,,0.00,0.0,WeatherDisplay:10.37,2013-03-20 07:44:00,
2013-03-20 02:47:00,32.7,31.2,30.29,North,355,2.9,3.5,94,0.00,CLR,,0.00,0.0,WeatherDisplay:10.37,2013-03-20 07:47:00,
2013-03-20 02:48:00,32.6,31.1,30.29,NNE,13,2.5,4.6,94,0.00,CLR,,0.00,0.0,WeatherDisplay:10.37,2013-03-20 07:48:00,
2013-03-20 02:49:00,32.6,31.1,30.29,North,360,1.7,4.6,94,0.00,CLR,,0.00,0.0,WeatherDisplay:10.37,2013-03-20 07:49:00,
2013-03-20 02:52:00,32.5,31.0,30.29,NNW,327,1.9,4.6,94,0.00,CLR,,0.00,0.0,WeatherDisplay:10.37,2013-03-20 07:52:00,
2013-03-20 02:53:00,32.5,31.0,30.29,North,360,2.6,3.5,94,0.00,CLR,,0.00,0.0,WeatherDisplay:10.37,2013-03-20 07:53:00,
2013-03-20 02:54:00,32.4,30.6,30.29,North,360,1.8,3.5,93,0.00,CLR,,0.00,0.0,WeatherDisplay:10.37,2013-03-20 07:54:00,
2013-03-20 02:58:00,32.3,30.8,30.29,NNW,330,3.5,4.6,94,0.00,CLR,,0.00,0.0,WeatherDisplay:10.37,2013-03-20 07:58:00,
2013-03-20 02:59:00,32.2,30.7,30.29,NNW,346,2.3,4.6,94,0.00,CLR,,0.00,0.0,WeatherDisplay:10.37,2013-03-20 07:59:00,
2013-03-20 03:03:00,32.1,30.6,30.30,NNW,327,2.7,3.5,94,0.00,CLR,,0.00,0.0,WeatherDisplay:10.37,2013-03-20 08:03:00,
2013-03-20 03:04:00,32.1,30.6,30.30,NNW,345,2.2,3.5,94,0.00,CLR,,0.00,0.0,WeatherDisplay:10.37,2013-03-20 08:04:00,
2013-03-20 03:08:00,31.9,30.4,30.30,NNW,330,2.3,3.5,94,0.00,CLR,,0.00,0.0,WeatherDisplay:10.37,2013-03-20 08:08:00,
2013-03-20 03:09:00,31.8,30.3,30.30,North,350,3.9,5.8,94,0.00,CLR,,0.00,0.0,WeatherDisplay:10.37,2013-03-20 08:09:00,
2013-03-20 03:13:00,31.8,30.0,30.29,NNE,13,3.3,5.8,93,0.00,CLR,,0.00,0.0,WeatherDisplay:10.37,2013-03-20 08:13:00,
2013-03-20 03:14:00,31.8,30.3,30.29,North,5,4.1,8.1,94,0.00,CLR,,0.00,0.0,WeatherDisplay:10.37,2013-03-20 08:14:00,
2013-03-20 03:15:00,31.8,30.0,30.29,NNW,328,3.9,8.1,93,0.00,CLR,,0.00,0.0,WeatherDisplay:10.37,2013-03-20 08:15:00,
2013-03-20 03:18:00,31.9,30.1,30.30,NNW,327,3.5,5.8,93,0.00,CLR,,0.00,0.0,WeatherDisplay:10.37,2013-03-20 08:18:00,
2013-03-20 03:19:00,31.9,30.1,30.30,NNW,333,3.7,8.1,93,0.00,CLR,,0.00,0.0,WeatherDisplay:10.37,2013-03-20 08:19:00,
2013-03-20 03:20:00,31.9,30.1,30.30,North,11,4.4,8.1,93,0.00,CLR,,0.00,0.0,WeatherDisplay:10.37,2013-03-20 08:20:00,
2013-03-20 03:23:00,31.9,29.8,30.30,NNW,343,4.1,5.8,92,0.00,CLR,,0.00,0.0,WeatherDisplay:10.37,2013-03-20 08:23:00,
2013-03-20 03:24:00,31.9,29.8,30.30,North,11,4.3,7.0,92,0.00,CLR,,0.00,0.0,WeatherDisplay:10.37,2013-03-20 08:24:00,
2013-03-20 03:25:00,31.9,29.8,30.30,North,360,5.6,8.1,92,0.00,CLR,,0.00,0.0,WeatherDisplay:10.37,2013-03-20 08:25:00,
2013-03-20 03:29:00,31.8,29.2,30.30,NNW,331,6.0,10.4,90,0.00,CLR,,0.00,0.0,WeatherDisplay:10.37,2013-03-20 08:29:00,
2013-03-20 03:30:00,31.8,28.9,30.30,North,355,7.7,10.4,89,0.00,CLR,,0.00,0.0,WeatherDisplay:10.37,2013-03-20 08:30:00,
2013-03-20 03:34:00,31.8,28.7,30.30,North,11,6.1,11.5,88,0.00,CLR,,0.00,0.0,WeatherDisplay:10.37,2013-03-20 08:34:00,
2013-03-20 03:35:00,31.8,28.4,30.30,NE,54,3.9,9.2,87,0.00,CLR,,0.00,0.0,WeatherDisplay:10.37,2013-03-20 08:35:00,
2013-03-20 03:39:00,31.6,27.6,30.30,NE,43,4.1,8.1,85,0.00,CLR,,0.00,0.0,WeatherDisplay:10.37,2013-03-20 08:39:00,
2013-03-20 03:40:00,31.6,27.3,30.30,NW,325,6.5,6.9,84,0.00,CLR,,0.00,0.0,WeatherDisplay:10.37,2013-03-20 08:40:00,
2013-03-20 03:44:00,31.5,26.9,30.30,North,349,8.5,11.0,83,0.00,CLR,,0.00,0.0,WeatherDisplay:10.37,2013-03-20 08:44:00,
2013-03-20 03:45:00,31.5,26.6,30.30,NNE,32,8.0,12.7,82,0.00,CLR,,0.00,0.0,WeatherDisplay:10.37,2013-03-20 08:45:00,
2013-03-20 03:49:00,31.4,26.5,30.30,NW,326,4.2,12.7,82,0.00,CLR,,0.00,0.0,WeatherDisplay:10.37,2013-03-20 08:49:00,
2013-03-20 03:50:00,31.3,26.7,30.30,NE,38,5.3,7.0,83,0.00,CLR,,0.00,0.0,WeatherDisplay:10.37,2013-03-20 08:50:00,
2013-03-20 03:51:00,31.3,26.4,30.30,NE,34,5.9,10.4,82,0.00,CLR,,0.00,0.0,WeatherDisplay:10.37,2013-03-20 08:51:00,
2013-03-20 03:54:00,31.2,26.3,30.30,NNE,12,7.5,11.5,82,0.00,CLR,,0.00,0.0,WeatherDisplay:10.37,2013-03-20 08:54:00,
2013-03-20 03:55:00,31.2,26.0,30.30,North,5,7.7,11.5,81,0.00,CLR,,0.00,0.0,WeatherDisplay:10.37,2013-03-20 08:55:00,
2013-03-20 03:56:00,31.2,26.0,30.30,NNE,17,8.9,10.4,81,0.00,CLR,,0.00,0.0,WeatherDisplay:10.37,2013-03-20 08:56:00,
2013-03-20 03:59:00,31.2,26.0,30.30,North,355,5.5,8.1,81,0.00,CLR,,0.00,0.0,WeatherDisplay:10.37,2013-03-20 08:59:00,
2013-03-20 04:00:00,31.2,25.7,30.30,NNE,13,5.7,8.1,80,0.00,CLR,,0.00,0.0,WeatherDisplay:10.37,2013-03-20 09:00:00,
2013-03-20 04:01:00,31.2,25.7,30.31,NNE,15,5.3,9.0,80,0.00,CLR,,0.00,0.0,WeatherDisplay:10.37,2013-03-20 09:01:00,
2013-03-20 04:04:00,31.1,25.0,30.30,North,9,5.9,9.2,78,0.00,CLR,,0.00,0.0,WeatherDisplay:10.37,2013-03-20 09:04:00,
2013-03-20 04:05:00,31.1,25.3,30.30,North,5,4.3,5.8,79,0.00,CLR,,0.00,0.0,WeatherDisplay:10.37,2013-03-20 09:05:00,
2013-03-20 04:06:00,31.0,24.9,30.31,NNW,334,4.4,8.1,78,0.00,CLR,,0.00,0.0,WeatherDisplay:10.37,2013-03-20 09:06:00,
2013-03-20 04:07:00,31.0,25.2,30.31,North,355,3.1,8.1,79,0.00,CLR,,0.00,0.0,WeatherDisplay:10.37,2013-03-20 09:07:00,
2013-03-20 04:10:00,30.8,25.1,30.31,NE,36,4.7,9.2,79,0.00,CLR,,0.00,0.0,WeatherDisplay:10.37,2013-03-20 09:10:00,
2013-03-20 04:11:00,30.7,24.7,30.31,NNW,346,5.6,8.1,78,0.00,CLR,,0.00,0.0,WeatherDisplay:10.37,2013-03-20 09:11:00,
2013-03-20 04:12:00,30.7,24.7,30.31,NW,317,6.5,9.0,78,0.00,CLR,,0.00,0.0,WeatherDisplay:10.37,2013-03-20 09:12:00,
2013-03-20 04:15:00,30.5,24.5,30.31,North,355,5.6,9.2,78,0.00,CLR,,0.00,0.0,WeatherDisplay:10.37,2013-03-20 09:15:00,
2013-03-20 04:16:00,30.5,24.5,30.31,North,355,6.0,8.1,78,0.00,CLR,,0.00,0.0,WeatherDisplay:10.37,2013-03-20 09:16:00,
2013-03-20 04:17:00,30.5,24.5,30.31,NE,34,5.9,8.1,78,0.00,CLR,,0.00,0.0,WeatherDisplay:10.37,2013-03-20 09:17:00,
2013-03-20 04:20:00,30.3,24.3,30.31,North,5,4.7,7.0,78,0.00,CLR,,0.00,0.0,WeatherDisplay:10.37,2013-03-20 09:20:00,
2013-03-20 04:21:00,30.3,24.3,30.31,NNW,327,5.4,6.9,78,0.00,CLR,,0.00,0.0,WeatherDisplay:10.37,2013-03-20 09:21:00,
2013-03-20 04:22:00,30.3,24.0,30.31,NNW,343,6.4,9.2,77,0.00,CLR,,0.00,0.0,WeatherDisplay:10.37,2013-03-20 09:22:00,
2013-03-20 04:25:00,30.2,23.2,30.30,NNW,347,6.1,11.5,75,0.00,CLR,,0.00,0.0,WeatherDisplay:10.37,2013-03-20 09:25:00,
2013-03-20 04:26:00,30.2,23.2,30.30,NNE,22,6.6,9.2,75,0.00,CLR,,0.00,0.0,WeatherDisplay:10.37,2013-03-20 09:26:00,
2013-03-20 04:27:00,30.2,22.9,30.30,NW,306,7.3,11.5,74,0.00,CLR,,0.00,0.0,WeatherDisplay:10.37,2013-03-20 09:27:00,
2013-03-20 04:30:00,30.1,22.5,30.30,NNW,327,6.5,11.5,73,0.00,CLR,,0.00,0.0,WeatherDisplay:10.37,2013-03-20 09:30:00,
2013-03-20 04:31:00,30.1,22.5,30.30,North,11,7.5,10.4,73,0.00,CLR,,0.00,0.0,WeatherDisplay:10.37,2013-03-20 09:31:00,
2013-03-20 04:32:00,30.0,22.4,30.30,North,9,5.9,10.4,73,0.00,CLR,,0.00,0.0,WeatherDisplay:10.37,2013-03-20 09:32:00,
2013-03-20 04:35:00,29.9,22.3,30.31,North,350,4.8,9.0,73,0.00,CLR,,0.00,0.0,WeatherDisplay:10.37,2013-03-20 09:35:00,
2013-03-20 04:37:00,29.8,22.2,30.31,North,5,6.3,11.5,73,0.00,CLR,,0.00,0.0,WeatherDisplay:10.37,2013-03-20 09:37:00,
2013-03-20 04:41:00,29.7,22.4,30.31,North,355,5.2,8.1,74,0.00,CLR,,0.00,0.0,WeatherDisplay:10.37,2013-03-20 09:41:00,
2013-03-20 04:42:00,29.7,22.4,30.31,NNW,345,3.9,8.1,74,0.00,CLR,,0.00,0.0,WeatherDisplay:10.37,2013-03-20 09:42:00,
2013-03-20 04:43:00,29.6,22.6,30.31,North,360,3.3,5.0,75,0.00,CLR,,0.00,0.0,WeatherDisplay:10.37,2013-03-20 09:43:00,
2013-03-20 04:47:00,29.5,22.2,30.30,North,360,5.6,8.0,74,0.00,CLR,,0.00,0.0,WeatherDisplay:10.37,2013-03-20 09:47:00,
2013-03-20 04:48:00,29.5,22.2,30.31,NNW,327,5.0,6.9,74,0.00,CLR,,0.00,0.0,WeatherDisplay:10.37,2013-03-20 09:48:00,
2013-03-20 04:52:00,29.4,21.5,30.30,NNW,338,4.4,8.1,72,0.00,CLR,,0.00,0.0,WeatherDisplay:10.37,2013-03-20 09:52:00,
2013-03-20 04:53:00,29.4,21.5,30.30,North,355,4.4,8.1,72,0.00,CLR,,0.00,0.0,WeatherDisplay:10.37,2013-03-20 09:53:00,
2013-03-20 04:54:00,29.4,21.8,30.30,NNW,341,5.0,8.1,73,0.00,CLR,,0.00,0.0,WeatherDisplay:10.37,2013-03-20 09:54:00,
2013-03-20 04:57:00,29.3,21.4,30.30,NNE,17,5.3,10.4,72,0.00,CLR,,0.00,0.0,WeatherDisplay:10.37,2013-03-20 09:57:00,
2013-03-20 04:58:00,29.3,21.4,30.30,North,355,5.1,10.4,72,0.00,CLR,,0.00,0.0,WeatherDisplay:10.37,2013-03-20 09:58:00,
2013-03-20 04:59:00,29.2,21.3,30.30,WNW,286,5.3,7.0,72,0.00,CLR,,0.00,0.0,WeatherDisplay:10.37,2013-03-20 09:59:00,
2013-03-20 05:03:00,29.1,21.2,30.30,NNW,336,5.4,6.9,72,0.00,CLR,,0.00,0.0,WeatherDisplay:10.37,2013-03-20 10:03:00,
2013-03-20 05:04:00,29.0,20.8,30.30,NNW,330,7.1,8.1,71,0.00,CLR,,0.00,0.0,WeatherDisplay:10.37,2013-03-20 10:04:00,
2013-03-20 05:08:00,28.9,21.0,30.31,NW,317,5.8,9.2,72,0.00,CLR,,0.00,0.0,WeatherDisplay:10.37,2013-03-20 10:08:00,
2013-03-20 05:09:00,28.9,21.0,30.31,NW,316,3.5,9.2,72,0.00,CLR,,0.00,0.0,WeatherDisplay:10.37,2013-03-20 10:09:00,
2013-03-20 05:13:00,28.7,20.5,30.31,WNW,300,5.3,10.4,71,0.00,CLR,,0.00,0.0,WeatherDisplay:10.37,2013-03-20 10:13:00,
2013-03-20 05:14:00,28.7,20.5,30.31,NNW,341,6.1,8.1,71,0.00,CLR,,0.00,0.0,WeatherDisplay:10.37,2013-03-20 10:14:00,
2013-03-20 05:18:00,28.5,20.0,30.31,NW,314,5.2,9.2,70,0.00,CLR,,0.00,0.0,WeatherDisplay:10.37,2013-03-20 10:18:00,
2013-03-20 05:19:00,28.5,20.0,30.31,NNE,12,5.4,9.2,70,0.00,CLR,,0.00,0.0,WeatherDisplay:10.37,2013-03-20 10:19:00,
2013-03-20 05:23:00,28.3,19.4,30.31,NNW,339,7.1,10.4,69,0.00,CLR,,0.00,0.0,WeatherDisplay:10.37,2013-03-20 10:23:00,
2013-03-20 05:24:00,28.3,19.4,30.31,NNW,330,5.5,10.4,69,0.00,CLR,,0.00,0.0,WeatherDisplay:10.37,2013-03-20 10:24:00,
2013-03-20 05:28:00,28.1,18.5,30.32,North,355,7.7,11.5,67,0.00,CLR,,0.00,0.0,WeatherDisplay:10.37,2013-03-20 10:28:00,
2013-03-20 05:29:00,28.1,18.5,30.32,NNE,23,8.1,11.5,67,0.00,CLR,,0.00,0.0,WeatherDisplay:10.37,2013-03-20 10:29:00,
2013-03-20 05:33:00,28.1,18.2,30.32,North,360,6.0,9.2,66,0.00,CLR,,0.00,0.0,WeatherDisplay:10.37,2013-03-20 10:33:00,
2013-03-20 05:34:00,28.1,17.8,30.32,NNW,344,7.4,9.2,65,0.00,CLR,,0.00,0.0,WeatherDisplay:10.37,2013-03-20 10:34:00,
2013-03-20 05:39:00,28.1,17.5,30.33,NNW,330,6.0,11.0,64,0.00,CLR,,0.00,0.0,WeatherDisplay:10.37,2013-03-20 10:39:00,
2013-03-20 05:40:00,28.1,17.5,30.33,NNW,330,7.9,11.5,64,0.00,CLR,,0.00,0.0,WeatherDisplay:10.37,2013-03-20 10:40:00,
2013-03-20 05:44:00,28.2,17.2,30.33,North,5,11.3,17.3,63,0.00,CLR,,0.00,0.0,WeatherDisplay:10.37,2013-03-20 10:44:00,
2013-03-20 05:45:00,28.2,16.8,30.33,NNE,28,8.6,13.8,62,0.00,CLR,,0.00,0.0,WeatherDisplay:10.37,2013-03-20 10:45:00,
2013-03-20 05:49:00,28.2,17.2,30.33,NNW,346,7.0,13.0,63,0.00,CLR,,0.00,0.0,WeatherDisplay:10.37,2013-03-20 10:49:00,
2013-03-20 05:50:00,28.2,17.6,30.33,NNW,332,5.8,8.1,64,0.00,CLR,,0.00,0.0,WeatherDisplay:10.37,2013-03-20 10:50:00,
2013-03-20 05:54:00,28.1,17.5,30.34,NW,317,4.1,11.5,64,0.00,CLR,,0.00,0.0,WeatherDisplay:10.37,2013-03-20 10:54:00,
2013-03-20 05:55:00,28.1,17.8,30.34,NNE,13,4.5,5.8,65,0.00,CLR,,0.00,0.0,WeatherDisplay:10.37,2013-03-20 10:55:00,
2013-03-20 05:59:00,28.0,17.7,30.34,NNW,348,6.3,11.5,65,0.00,CLR,,0.00,0.0,WeatherDisplay:10.37,2013-03-20 10:59:00,
2013-03-20 06:00:00,28.0,17.4,30.34,NNE,16,6.0,11.5,64,0.00,CLR,,0.00,0.0,WeatherDisplay:10.37,2013-03-20 11:00:00,
2013-03-20 06:04:00,28.0,17.4,30.34,NNE,24,5.4,12.0,64,0.00,CLR,,0.00,0.0,WeatherDisplay:10.37,2013-03-20 11:04:00,
2013-03-20 06:05:00,28.0,17.4,30.35,NNW,338,6.2,9.2,64,0.00,CLR,,0.00,0.0,WeatherDisplay:10.37,2013-03-20 11:05:00,
2013-03-20 06:10:00,27.9,17.3,30.35,North,360,6.6,11.5,64,0.00,CLR,,0.00,0.0,WeatherDisplay:10.37,2013-03-20 11:10:00,
2013-03-20 06:11:00,27.9,16.9,30.34,NNW,341,6.2,10.4,63,0.00,CLR,,0.00,0.0,WeatherDisplay:10.37,2013-03-20 11:11:00,
2013-03-20 06:15:00,27.7,17.1,30.35,NNW,331,3.8,8.1,64,0.00,CLR,,0.00,0.0,WeatherDisplay:10.37,2013-03-20 11:15:00,
2013-03-20 06:16:00,27.6,17.0,30.35,NW,310,5.4,6.9,64,0.00,CLR,,0.00,0.0,WeatherDisplay:10.37,2013-03-20 11:16:00,
2013-03-20 06:20:00,27.4,16.4,30.35,NNW,328,5.1,12.0,63,0.00,CLR,,0.00,0.0,WeatherDisplay:10.37,2013-03-20 11:20:00,
2013-03-20 06:22:00,27.3,16.4,30.35,NW,322,5.5,10.4,63,0.00,CLR,,0.00,0.0,WeatherDisplay:10.37,2013-03-20 11:22:00,
2013-03-20 06:25:00,27.1,16.2,30.35,NNE,31,3.7,10.4,63,0.00,CLR,,0.00,0.0,WeatherDisplay:10.37,2013-03-20 11:25:00,
2013-03-20 06:28:00,27.0,16.1,30.36,WNW,292,6.2,9.2,63,0.00,CLR,,0.00,0.0,WeatherDisplay:10.37,2013-03-20 11:28:00,
2013-03-20 06:30:00,26.9,15.6,30.36,NNW,338,6.4,11.5,62,0.00,CLR,,0.00,0.0,WeatherDisplay:10.37,2013-03-20 11:30:00,
2013-03-20 06:31:00,26.9,15.6,30.36,NNE,18,5.6,11.5,62,0.00,CLR,,0.00,0.0,WeatherDisplay:10.37,2013-03-20 11:31:00,
2013-03-20 06:33:00,26.9,15.6,30.36,NNW,334,4.5,12.7,62,0.00,CLR,,0.00,0.0,WeatherDisplay:10.37,2013-03-20 11:33:00,
2013-03-20 06:35:00,26.8,15.9,30.36,NW,321,7.2,11.5,63,0.00,CLR,,0.00,0.0,WeatherDisplay:10.37,2013-03-20 11:35:00,
2013-03-20 06:36:00,26.8,15.5,30.36,NNE,27,7.8,11.5,62,0.00,CLR,,0.00,0.0,WeatherDisplay:10.37,2013-03-20 11:36:00,
2013-03-20 06:38:00,26.8,15.5,30.35,North,349,6.9,9.2,62,0.00,CLR,,0.00,0.0,WeatherDisplay:10.37,2013-03-20 11:38:00,
2013-03-20 06:40:00,26.8,15.5,30.36,North,5,7.6,11.5,62,0.00,CLR,,0.00,0.0,WeatherDisplay:10.37,2013-03-20 11:40:00,
2013-03-20 06:41:00,26.7,15.4,30.36,NNW,346,6.8,12.0,62,0.00,CLR,,0.00,0.0,WeatherDisplay:10.37,2013-03-20 11:41:00,
2013-03-20 06:43:00,26.7,15.4,30.36,NNW,344,7.2,15.0,62,0.00,CLR,,0.00,0.0,WeatherDisplay:10.37,2013-03-20 11:43:00,
2013-03-20 06:45:00,26.7,15.0,30.36,NNW,347,5.4,8.1,61,0.00,CLR,,0.00,0.0,WeatherDisplay:10.37,2013-03-20 11:45:00,
2013-03-20 06:46:00,26.7,15.0,30.36,NNW,329,5.9,9.2,61,0.00,CLR,,0.00,0.0,WeatherDisplay:10.37,2013-03-20 11:46:00,
2013-03-20 06:47:00,26.7,15.0,30.36,NNE,16,6.2,9.2,61,0.00,CLR,,0.00,0.0,WeatherDisplay:10.37,2013-03-20 11:47:00,
2013-03-20 06:48:00,26.7,15.0,30.37,NNW,346,5.7,10.4,61,0.00,CLR,,0.00,0.0,WeatherDisplay:10.37,2013-03-20 11:48:00,
2013-03-20 06:50:00,26.6,15.3,30.37,NW,314,2.8,6.0,62,0.00,CLR,,0.00,0.0,WeatherDisplay:10.37,2013-03-20 11:50:00,
2013-03-20 06:52:00,26.6,15.3,30.37,WNW,302,7.3,11.5,62,0.00,CLR,,0.00,0.0,WeatherDisplay:10.37,2013-03-20 11:52:00,
2013-03-20 06:54:00,26.5,15.2,30.37,NW,317,4.9,8.1,62,0.00,CLR,,0.00,0.0,WeatherDisplay:10.37,2013-03-20 11:54:00,
2013-03-20 06:55:00,26.5,14.9,30.37,NW,314,9.0,12.0,61,0.00,CLR,,0.00,0.0,WeatherDisplay:10.37,2013-03-20 11:55:00,
2013-03-20 06:57:00,26.5,14.5,30.37,North,355,9.1,19.6,60,0.00,CLR,,0.00,0.0,WeatherDisplay:10.37,2013-03-20 11:57:00,
2013-03-20 06:59:00,26.5,14.5,30.36,North,5,7.8,12.7,60,0.00,CLR,,0.00,0.0,WeatherDisplay:10.37,2013-03-20 11:59:00,
2013-03-20 07:00:00,26.5,14.5,30.36,North,5,9.3,13.8,60,0.00,CLR,,0.00,0.0,WeatherDisplay:10.37,2013-03-20 12:00:00,
2013-03-20 07:02:00,26.4,14.4,30.36,NW,310,10.5,13.8,60,0.00,CLR,,0.00,0.0,WeatherDisplay:10.37,2013-03-20 12:02:00,
2013-03-20 07:04:00,26.4,14.4,30.37,North,355,7.7,15.0,60,0.00,CLR,,0.00,0.0,WeatherDisplay:10.37,2013-03-20 12:04:00,
2013-03-20 07:06:00,26.4,14.4,30.37,NNW,344,8.3,11.5,60,0.00,CLR,,0.00,0.0,WeatherDisplay:10.37,2013-03-20 12:06:00,
2013-03-20 07:07:00,26.4,14.8,30.37,NNE,16,5.5,9.2,61,0.00,CLR,,0.00,0.0,WeatherDisplay:10.37,2013-03-20 12:07:00,
2013-03-20 07:08:00,26.4,15.1,30.37,North,9,4.0,9.2,62,0.00,CLR,,0.00,0.0,WeatherDisplay:10.37,2013-03-20 12:08:00,
2013-03-20 07:09:00,26.3,15.0,30.38,NNW,338,3.9,5.8,62,0.00,CLR,,0.00,0.0,WeatherDisplay:10.37,2013-03-20 12:09:00,
2013-03-20 07:11:00,26.3,15.4,30.37,NNW,340,5.8,8.1,63,0.00,CLR,,0.00,0.0,WeatherDisplay:10.37,2013-03-20 12:11:00,
2013-03-20 07:12:00,26.2,14.9,30.37,NW,321,10.8,15.0,62,0.00,CLR,,0.00,0.0,WeatherDisplay:10.37,2013-03-20 12:12:00,
2013-03-20 07:14:00,26.2,14.6,30.37,North,351,9.0,12.7,61,0.00,CLR,,0.00,0.0,WeatherDisplay:10.37,2013-03-20 12:14:00,
2013-03-20 07:15:00,26.2,14.6,30.37,North,5,8.5,12.7,61,0.00,CLR,,0.00,0.0,WeatherDisplay:10.37,2013-03-20 12:15:00,
2013-03-20 07:16:00,26.1,14.5,30.37,North,351,6.8,12.7,61,0.00,CLR,,0.00,0.0,WeatherDisplay:10.37,2013-03-20 12:16:00,
2013-03-20 07:18:00,26.1,13.7,30.37,North,11,7.5,11.5,59,0.00,CLR,,0.00,0.0,WeatherDisplay:10.37,2013-03-20 12:18:00,
2013-03-20 07:20:00,26.0,14.0,30.37,North,9,8.0,11.5,60,0.00,CLR,,0.00,0.0,WeatherDisplay:10.37,2013-03-20 12:20:00,
2013-03-20 07:21:00,26.0,13.6,30.37,NW,322,6.8,9.2,59,0.00,CLR,,0.00,0.0,WeatherDisplay:10.37,2013-03-20 12:21:00,
2013-03-20 07:23:00,26.0,13.6,30.37,NNW,335,9.1,12.7,59,0.00,CLR,,0.00,0.0,WeatherDisplay:10.37,2013-03-20 12:23:00,
2013-03-20 07:25:00,25.9,13.5,30.37,NNW,336,5.3,8.1,59,0.00,CLR,,0.00,0.0,WeatherDisplay:10.37,2013-03-20 12:25:00,
2013-03-20 07:26:00,25.9,13.1,30.37,NNW,330,6.5,12.0,58,0.00,CLR,,0.00,5.0,WeatherDisplay:10.37,2013-03-20 12:26:00,
2013-03-20 07:28:00,25.8,12.6,30.37,North,360,6.6,16.1,57,0.00,CLR,,0.00,7.0,WeatherDisplay:10.37,2013-03-20 12:28:00,
2013-03-20 07:30:00,25.8,13.0,30.37,North,9,7.1,11.5,58,0.00,CLR,,0.00,7.0,WeatherDisplay:10.37,2013-03-20 12:30:00,
2013-03-20 07:31:00,25.7,12.9,30.37,NW,321,5.7,11.5,58,0.00,CLR,,0.00,7.0,WeatherDisplay:10.37,2013-03-20 12:31:00,
2013-03-20 07:33:00,25.7,12.9,30.37,North,360,4.9,8.1,58,0.00,CLR,,0.00,9.0,WeatherDisplay:10.37,2013-03-20 12:33:00,
2013-03-20 07:35:00,25.5,13.1,30.38,NW,320,4.3,6.9,59,0.00,CLR,,0.00,9.0,WeatherDisplay:10.37,2013-03-20 12:35:00,
2013-03-20 07:36:00,25.4,13.1,30.38,NNE,26,7.1,11.5,59,0.00,CLR,,0.00,11.0,WeatherDisplay:10.37,2013-03-20 12:36:00,
2013-03-20 07:38:00,25.4,13.1,30.38,NNE,14,4.8,6.9,59,0.00,CLR,,0.00,11.0,WeatherDisplay:10.37,2013-03-20 12:38:00,
2013-03-20 07:40:00,25.3,13.0,30.38,NNW,344,4.6,9.2,59,0.00,CLR,,0.00,11.0,WeatherDisplay:10.37,2013-03-20 12:40:00,
2013-03-20 07:42:00,25.2,12.9,30.38,NNE,15,6.8,8.1,59,0.00,CLR,,0.00,12.0,WeatherDisplay:10.37,2013-03-20 12:42:00,
2013-03-20 07:44:00,25.1,12.8,30.37,NNW,327,7.8,11.5,59,0.00,CLR,,0.00,12.0,WeatherDisplay:10.37,2013-03-20 12:44:00,
2013-03-20 07:45:00,25.1,12.8,30.37,North,5,6.2,9.2,59,0.00,CLR,,0.00,14.0,WeatherDisplay:10.37,2013-03-20 12:45:00,
2013-03-20 07:47:00,25.0,13.1,30.37,North,5,4.3,9.2,60,0.00,CLR,,0.00,16.0,WeatherDisplay:10.37,2013-03-20 12:47:00,
2013-03-20 07:49:00,24.9,13.3,30.38,NNE,17,5.1,6.0,61,0.00,CLR,,0.00,16.0,WeatherDisplay:10.37,2013-03-20 12:49:00,
2013-03-20 07:50:00,24.8,12.5,30.38,NNW,347,6.5,11.5,59,0.00,CLR,,0.00,18.0,WeatherDisplay:10.37,2013-03-20 12:50:00,
2013-03-20 07:52:00,24.8,12.9,30.38,NE,38,6.1,9.2,60,0.00,CLR,,0.00,18.0,WeatherDisplay:10.37,2013-03-20 12:52:00,
2013-03-20 07:54:00,24.8,12.5,30.38,NW,319,3.7,10.4,59,0.00,CLR,,0.00,18.0,WeatherDisplay:10.37,2013-03-20 12:54:00,
2013-03-20 07:55:00,24.8,12.5,30.38,North,5,4.6,7.0,59,0.00,CLR,,0.00,19.0,WeatherDisplay:10.37,2013-03-20 12:55:00,
2013-03-20 07:57:00,24.7,12.4,30.38,North,355,4.7,10.4,59,0.00,CLR,,0.00,19.0,WeatherDisplay:10.37,2013-03-20 12:57:00,
2013-03-20 07:59:00,24.7,12.0,30.38,NNE,13,7.6,8.0,58,0.00,CLR,,0.00,19.0,WeatherDisplay:10.37,2013-03-20 12:59:00,
2013-03-20 08:01:00,24.7,12.0,30.38,WNW,291,5.8,11.5,58,0.00,CLR,,0.00,23.0,WeatherDisplay:10.37,2013-03-20 13:01:00,
2013-03-20 08:03:00,24.7,12.0,30.38,NW,322,10.3,15.0,58,0.00,CLR,,0.00,23.0,WeatherDisplay:10.37,2013-03-20 13:03:00,
2013-03-20 08:04:00,24.7,11.6,30.38,NNW,331,12.9,17.3,57,0.00,CLR,,0.00,23.0,WeatherDisplay:10.37,2013-03-20 13:04:00,
2013-03-20 08:06:00,24.7,11.6,30.38,NNW,334,7.6,16.1,57,0.00,CLR,,0.00,23.0,WeatherDisplay:10.37,2013-03-20 13:06:00,
2013-03-20 08:08:00,24.8,12.1,30.38,NNW,340,8.1,13.0,58,0.00,CLR,,0.00,25.0,WeatherDisplay:10.37,2013-03-20 13:08:00,
2013-03-20 08:09:00,24.7,11.6,30.39,NNW,342,14.3,19.6,57,0.00,CLR,,0.00,26.0,WeatherDisplay:10.37,2013-03-20 13:09:00,
2013-03-20 08:12:00,24.8,11.3,30.38,North,5,12.8,18.4,56,0.00,CLR,,0.00,39.0,WeatherDisplay:10.37,2013-03-20 13:12:00,
2013-03-20 08:13:00,24.8,10.9,30.39,NNW,327,9.0,19.6,55,0.00,CLR,,0.00,40.0,WeatherDisplay:10.37,2013-03-20 13:13:00,
2013-03-20 08:14:00,24.8,10.9,30.39,NW,317,9.7,19.6,55,0.00,CLR,,0.00,40.0,WeatherDisplay:10.37,2013-03-20 13:14:00,
2013-03-20 08:18:00,24.8,11.7,30.39,NNW,328,7.9,10.4,57,0.00,CLR,,0.00,37.0,WeatherDisplay:10.37,2013-03-20 13:18:00,
2013-03-20 08:19:00,24.8,11.7,30.39,North,5,6.6,10.4,57,0.00,CLR,,0.00,35.0,WeatherDisplay:10.37,2013-03-20 13:19:00,
2013-03-20 08:23:00,24.7,11.6,30.39,NW,318,7.5,12.7,57,0.00,CLR,,0.00,40.0,WeatherDisplay:10.37,2013-03-20 13:23:00,
2013-03-20 08:24:00,24.7,11.6,30.39,North,355,8.8,13.8,57,0.00,CLR,,0.00,46.0,WeatherDisplay:10.37,2013-03-20 13:24:00,
2013-03-20 08:25:00,24.7,11.2,30.39,North,360,8.0,15.0,56,0.00,CLR,,0.00,46.0,WeatherDisplay:10.37,2013-03-20 13:25:00,
2013-03-20 08:28:00,24.6,11.5,30.39,NNE,13,6.0,10.4,57,0.00,CLR,,0.00,62.0,WeatherDisplay:10.37,2013-03-20 13:28:00,
2013-03-20 08:29:00,24.7,12.0,30.39,NNW,342,6.7,8.1,58,0.00,CLR,,0.00,69.0,WeatherDisplay:10.37,2013-03-20 13:29:00,
2013-03-20 08:30:00,24.6,11.9,30.39,North,360,7.4,12.7,58,0.00,CLR,,0.00,69.0,WeatherDisplay:10.37,2013-03-20 13:30:00,
2013-03-20 08:33:00,24.7,12.0,30.39,WNW,290,3.3,10.4,58,0.00,CLR,,0.00,81.0,WeatherDisplay:10.37,2013-03-20 13:33:00,
2013-03-20 08:34:00,24.7,12.0,30.39,NW,319,6.8,11.0,58,0.00,CLR,,0.00,81.0,WeatherDisplay:10.37,2013-03-20 13:34:00,
2013-03-20 08:35:00,24.7,12.0,30.39,NNE,19,8.5,11.5,58,0.00,CLR,,0.00,84.0,WeatherDisplay:10.37,2013-03-20 13:35:00,
2013-03-20 08:38:00,24.7,12.0,30.39,NNW,338,10.2,13.8,58,0.00,CLR,,0.00,84.0,WeatherDisplay:10.37,2013-03-20 13:38:00,
2013-03-20 08:39:00,24.7,12.0,30.39,NW,325,5.4,11.5,58,0.00,CLR,,0.00,105.0,WeatherDisplay:10.37,2013-03-20 13:39:00,
2013-03-20 08:40:00,24.7,12.0,30.39,North,355,6.2,9.0,58,0.00,CLR,,0.00,102.0,WeatherDisplay:10.37,2013-03-20 13:40:00,
2013-03-20 08:43:00,24.8,12.1,30.39,NNW,334,9.8,15.0,58,0.00,CLR,,0.00,120.0,WeatherDisplay:10.37,2013-03-20 13:43:00,
2013-03-20 08:44:00,24.8,11.7,30.39,North,9,7.9,11.5,57,0.00,CLR,,0.00,127.0,WeatherDisplay:10.37,2013-03-20 13:44:00,
2013-03-20 08:45:00,24.8,11.7,30.39,NNW,348,7.5,11.5,57,0.00,CLR,,0.00,120.0,WeatherDisplay:10.37,2013-03-20 13:45:00,
2013-03-20 08:49:00,25.1,12.0,30.39,NNE,15,11.4,14.0,57,0.00,CLR,,0.00,84.0,WeatherDisplay:10.37,2013-03-20 13:49:00,
2013-03-20 08:50:00,25.1,12.0,30.39,NE,35,11.4,19.6,57,0.00,CLR,,0.00,40.0,WeatherDisplay:10.37,2013-03-20 13:50:00,
2013-03-20 08:54:00,25.0,11.1,30.39,NW,325,11.1,19.6,55,0.00,CLR,,0.00,137.0,WeatherDisplay:10.37,2013-03-20 13:54:00,
2013-03-20 08:55:00,25.0,11.1,30.39,North,5,10.7,18.4,55,0.00,CLR,,0.00,97.0,WeatherDisplay:10.37,2013-03-20 13:55:00,
2013-03-20 08:59:00,25.3,11.4,30.39,NNW,338,11.0,12.7,55,0.00,CLR,,0.00,137.0,WeatherDisplay:10.37,2013-03-20 13:59:00,
2013-03-20 09:00:00,25.3,11.4,30.39,NNW,331,10.2,16.1,55,0.00,OVC,,0.00,146.0,WeatherDisplay:10.37,2013-03-20 14:00:00,
2013-03-20 09:04:00,25.3,12.2,30.39,NNE,12,7.8,15.0,57,0.00,OVC,,0.00,181.0,WeatherDisplay:10.37,2013-03-20 14:04:00,
2013-03-20 09:05:00,25.4,11.5,30.39,North,351,9.5,15.0,55,0.00,OVC,,0.00,158.0,WeatherDisplay:10.37,2013-03-20 14:05:00,
2013-03-20 09:09:00,25.7,12.9,30.39,North,10,4.0,5.8,58,0.00,OVC,,0.00,144.0,WeatherDisplay:10.37,2013-03-20 14:09:00,
2013-03-20 09:10:00,25.9,13.1,30.40,NNE,32,3.6,9.0,58,0.00,OVC,,0.00,162.0,WeatherDisplay:10.37,2013-03-20 14:10:00,
2013-03-20 09:11:00,26.0,13.2,30.39,WNW,301,4.8,7.0,58,0.00,OVC,,0.00,162.0,WeatherDisplay:10.37,2013-03-20 14:11:00,
2013-03-20 09:15:00,26.1,13.7,30.39,North,5,6.0,10.4,59,0.00,OVC,,0.00,216.0,WeatherDisplay:10.37,2013-03-20 14:15:00,
2013-03-20 09:16:00,26.1,13.7,30.39,North,5,7.1,11.5,59,0.00,OVC,,0.00,223.0,WeatherDisplay:10.37,2013-03-20 14:16:00,
2013-03-20 09:20:00,26.2,13.4,30.39,NNW,330,6.7,13.8,58,0.00,OVC,,0.00,172.0,WeatherDisplay:10.37,2013-03-20 14:20:00,
2013-03-20 09:21:00,26.2,13.8,30.40,North,5,5.4,11.5,59,0.00,OVC,,0.00,167.0,WeatherDisplay:10.37,2013-03-20 14:21:00,
2013-03-20 09:22:00,26.3,13.1,30.40,NNW,330,10.2,13.8,57,0.00,OVC,,0.00,171.0,WeatherDisplay:10.37,2013-03-20 14:22:00,
2013-03-20 09:24:00,26.1,12.5,30.39,North,11,5.7,12.7,56,0.00,OVC,,0.00,144.0,WeatherDisplay:10.37,2013-03-20 14:24:00,
2013-03-20 09:26:00,26.3,13.5,30.40,NW,323,7.0,11.5,58,0.00,OVC,,0.00,167.0,WeatherDisplay:10.37,2013-03-20 14:26:00,
2013-03-20 09:27:00,26.3,13.1,30.39,NNE,20,6.7,11.5,57,0.00,OVC,,0.00,149.0,WeatherDisplay:10.37,2013-03-20 14:27:00,
2013-03-20 09:29:00,26.4,13.6,30.40,North,355,5.9,10.4,58,0.00,OVC,,0.00,178.0,WeatherDisplay:10.37,2013-03-20 14:29:00,
2013-03-20 09:31:00,26.5,13.7,30.40,NNE,31,6.7,11.5,58,0.00,OVC,,0.00,211.0,WeatherDisplay:10.37,2013-03-20 14:31:00,
2013-03-20 09:32:00,26.5,14.1,30.40,North,10,6.6,8.1,59,0.00,OVC,,0.00,262.0,WeatherDisplay:10.37,2013-03-20 14:32:00,
2013-03-20 09:34:00,26.5,13.3,30.39,WNW,286,8.7,11.5,57,0.00,OVC,,0.00,285.0,WeatherDisplay:10.37,2013-03-20 14:34:00,
2013-03-20 09:36:00,26.5,13.3,30.40,NNW,346,5.9,11.5,57,0.00,OVC,,0.00,288.0,WeatherDisplay:10.37,2013-03-20 14:36:00,
2013-03-20 09:37:00,26.5,13.7,30.40,NNE,15,6.9,11.5,58,0.00,OVC,,0.00,292.0,WeatherDisplay:10.37,2013-03-20 14:37:00,
2013-03-20 09:40:00,26.5,13.3,30.40,NNW,339,6.7,11.5,57,0.00,OVC,,0.00,302.0,WeatherDisplay:10.37,2013-03-20 14:40:00,
2013-03-20 09:42:00,26.5,12.9,30.40,NNE,22,8.0,13.8,56,0.00,OVC,,0.00,257.0,WeatherDisplay:10.37,2013-03-20 14:42:00,
2013-03-20 09:43:00,26.5,13.3,30.40,NNE,31,7.4,12.7,57,0.00,OVC,,0.00,257.0,WeatherDisplay:10.37,2013-03-20 14:43:00,
2013-03-20 09:45:00,26.7,13.5,30.40,NNW,348,7.0,11.0,57,0.00,OVC,,0.00,287.0,WeatherDisplay:10.37,2013-03-20 14:45:00,
2013-03-20 09:47:00,26.5,12.5,30.40,NNW,348,9.4,15.0,55,0.00,OVC,,0.00,218.0,WeatherDisplay:10.37,2013-03-20 14:47:00,
2013-03-20 09:48:00,26.6,13.4,30.40,NNW,336,7.2,12.7,57,0.00,OVC,,0.00,46.0,WeatherDisplay:10.37,2013-03-20 14:48:00,
2013-03-20 09:50:00,26.5,12.9,30.40,NNE,23,6.2,9.2,56,0.00,OVC,,0.00,44.0,WeatherDisplay:10.37,2013-03-20 14:50:00,
2013-03-20 09:52:00,26.7,12.7,30.40,NNE,23,8.0,9.2,55,0.00,OVC,,0.00,155.0,WeatherDisplay:10.37,2013-03-20 14:52:00,
2013-03-20 09:53:00,26.7,13.1,30.40,NNW,337,7.5,11.5,56,0.00,OVC,,0.00,155.0,WeatherDisplay:10.37,2013-03-20 14:53:00,
2013-03-20 09:55:00,26.8,13.2,30.40,NNW,346,5.8,11.5,56,0.00,OVC,,0.00,348.0,WeatherDisplay:10.37,2013-03-20 14:55:00,
2013-03-20 09:57:00,27.0,13.8,30.40,NNW,329,6.4,11.5,57,0.00,OVC,,0.00,341.0,WeatherDisplay:10.37,2013-03-20 14:57:00,
2013-03-20 09:58:00,27.0,13.0,30.40,North,5,5.6,11.5,55,0.00,OVC,,0.00,271.0,WeatherDisplay:10.37,2013-03-20 14:58:00,
2013-03-20 10:00:00,27.2,13.1,30.40,NNE,30,8.4,10.4,55,0.00,OVC,,0.00,255.0,WeatherDisplay:10.37,2013-03-20 15:00:00,
2013-03-20 10:02:00,27.0,13.0,30.40,NNW,341,5.9,10.4,55,0.00,OVC,,0.00,260.0,WeatherDisplay:10.37,2013-03-20 15:02:00,
2013-03-20 10:03:00,26.9,12.9,30.40,North,355,6.2,9.2,55,0.00,OVC,,0.00,278.0,WeatherDisplay:10.37,2013-03-20 15:03:00,
2013-03-20 10:05:00,27.3,14.8,30.40,North,5,3.0,4.0,59,0.00,OVC,,0.00,172.0,WeatherDisplay:10.37,2013-03-20 15:05:00,
2013-03-20 10:07:00,27.6,13.5,30.40,North,360,5.5,8.1,55,0.00,OVC,,0.00,53.0,WeatherDisplay:10.37,2013-03-20 15:07:00,
2013-03-20 10:08:00,27.7,14.0,30.40,NNW,334,2.6,4.6,56,0.00,OVC,,0.00,123.0,WeatherDisplay:10.37,2013-03-20 15:08:00,
2013-03-20 10:10:00,28.0,13.9,30.40,North,360,9.9,17.3,55,0.00,OVC,,0.00,148.0,WeatherDisplay:10.37,2013-03-20 15:10:00,
2013-03-20 10:12:00,27.6,12.2,30.39,NW,319,9.3,16.1,52,0.00,OVC,,0.00,47.0,WeatherDisplay:10.37,2013-03-20 15:12:00,
2013-03-20 10:13:00,27.6,12.7,30.40,NNW,334,5.3,12.7,53,0.00,OVC,,0.00,70.0,WeatherDisplay:10.37,2013-03-20 15:13:00,
2013-03-20 10:14:00,27.6,12.7,30.40,North,360,5.6,12.7,53,0.00,OVC,,0.00,70.0,WeatherDisplay:10.37,2013-03-20 15:14:00,
2013-03-20 10:15:00,27.6,11.8,30.40,NNW,340,8.3,15.0,51,0.00,OVC,,0.00,223.0,WeatherDisplay:10.37,2013-03-20 15:15:00,
2013-03-20 10:18:00,27.7,11.9,30.40,North,5,6.4,11.5,51,0.00,OVC,,0.00,197.0,WeatherDisplay:10.37,2013-03-20 15:18:00,
2013-03-20 10:19:00,27.9,13.0,30.40,NW,315,4.6,10.4,53,0.00,OVC,,0.00,132.0,WeatherDisplay:10.37,2013-03-20 15:19:00,
2013-03-20 10:20:00,28.3,13.3,30.40,North,349,7.3,11.5,53,0.00,OVC,,0.00,81.0,WeatherDisplay:10.37,2013-03-20 15:20:00,
2013-03-20 10:23:00,28.3,12.9,30.40,NNW,339,5.6,11.5,52,0.00,OVC,,0.00,346.0,WeatherDisplay:10.37,2013-03-20 15:23:00,
2013-03-20 10:24:00,28.4,13.4,30.40,NNE,24,7.1,10.4,53,0.00,OVC,,0.00,388.0,WeatherDisplay:10.37,2013-03-20 15:24:00,
2013-03-20 10:25:00,28.4,12.6,30.41,NNE,19,5.3,8.1,51,0.00,OVC,,0.00,376.0,WeatherDisplay:10.37,2013-03-20 15:25:00,
2013-03-20 10:28:00,28.4,13.0,30.41,NW,319,7.4,9.2,52,0.00,OVC,,0.00,369.0,WeatherDisplay:10.37,2013-03-20 15:28:00,
2013-03-20 10:29:00,28.4,13.0,30.41,North,5,6.8,11.5,52,0.00,OVC,,0.00,406.0,WeatherDisplay:10.37,2013-03-20 15:29:00,
2013-03-20 10:30:00,28.4,13.4,30.41,North,11,7.7,12.0,53,0.00,OVC,,0.00,397.0,WeatherDisplay:10.37,2013-03-20 15:30:00,
2013-03-20 10:33:00,28.3,12.5,30.40,NW,304,7.4,12.7,51,0.00,OVC,,0.00,404.0,WeatherDisplay:10.37,2013-03-20 15:33:00,
2013-03-20 10:34:00,28.4,13.4,30.40,NNE,18,8.1,10.4,53,0.00,OVC,,0.00,478.0,WeatherDisplay:10.37,2013-03-20 15:34:00,
2013-03-20 10:36:00,28.3,13.3,30.40,WNW,296,6.9,10.4,53,0.00,OVC,,0.00,512.0,WeatherDisplay:10.37,2013-03-20 15:36:00,
2013-03-20 10:38:00,28.0,11.3,30.40,NNW,336,6.0,11.5,49,0.00,OVC,,0.00,494.0,WeatherDisplay:10.37,2013-03-20 15:38:00,
2013-03-20 10:39:00,27.9,12.1,30.40,NW,325,6.4,11.5,51,0.00,OVC,,0.00,492.0,WeatherDisplay:10.37,2013-03-20 15:39:00,
2013-03-20 10:41:00,28.0,12.6,30.40,NNW,327,6.9,12.0,52,0.00,OVC,,0.00,446.0,WeatherDisplay:10.37,2013-03-20 15:41:00,
2013-03-20 10:43:00,28.1,13.1,30.40,WNW,302,5.5,9.2,53,0.00,OVC,,0.00,545.0,WeatherDisplay:10.37,2013-03-20 15:43:00,
2013-03-20 10:44:00,28.3,13.3,30.40,North,11,3.8,5.8,53,0.00,OVC,,0.00,545.0,WeatherDisplay:10.37,2013-03-20 15:44:00,
2013-03-20 10:45:00,28.4,14.7,30.40,NW,324,3.7,6.0,56,0.00,OVC,,0.00,545.0,WeatherDisplay:10.37,2013-03-20 15:45:00,
2013-03-20 10:46:00,28.9,15.2,30.40,North,355,6.8,11.5,56,0.00,OVC,,0.00,555.0,WeatherDisplay:10.37,2013-03-20 15:46:00,
2013-03-20 10:48:00,29.0,13.6,30.40,NNW,334,6.3,13.8,52,0.00,OVC,,0.00,561.0,WeatherDisplay:10.37,2013-03-20 15:48:00,
2013-03-20 10:50:00,28.9,13.9,30.39,NNW,327,7.7,15.0,53,0.00,OVC,,0.00,563.0,WeatherDisplay:10.37,2013-03-20 15:50:00,
2013-03-20 10:52:00,28.9,13.9,30.39,NW,325,4.8,9.2,53,0.00,OVC,,0.00,475.0,WeatherDisplay:10.37,2013-03-20 15:52:00,
2013-03-20 10:53:00,29.3,13.8,30.39,NW,320,6.3,9.2,52,0.00,OVC,,0.00,564.0,WeatherDisplay:10.37,2013-03-20 15:53:00,
2013-03-20 10:55:00,29.2,12.8,30.39,NNW,327,7.3,11.5,50,0.00,OVC,,0.00,585.0,WeatherDisplay:10.37,2013-03-20 15:55:00,
2013-03-20 10:57:00,29.1,12.3,30.39,NNW,336,8.5,13.8,49,0.00,OVC,,0.00,524.0,WeatherDisplay:10.37,2013-03-20 15:57:00,
2013-03-20 10:59:00,29.0,12.7,30.39,WNW,302,8.2,9.2,50,0.00,OVC,,0.00,497.0,WeatherDisplay:10.37,2013-03-20 15:59:00,
2013-03-20 11:00:00,29.0,12.2,30.39,NNE,18,7.1,11.5,49,0.00,OVC,,0.00,513.0,WeatherDisplay:10.37,2013-03-20 16:00:00,
2013-03-20 11:03:00,29.8,14.7,30.39,NNE,19,3.5,5.8,53,0.00,OVC,,0.00,594.0,WeatherDisplay:10.37,2013-03-20 16:03:00,
2013-03-20 11:04:00,30.1,14.1,30.39,NNW,344,3.7,8.1,51,0.00,OVC,,0.00,617.0,WeatherDisplay:10.37,2013-03-20 16:04:00,
2013-03-20 11:05:00,30.3,15.2,30.39,NW,321,2.8,5.8,53,0.00,OVC,,0.00,633.0,WeatherDisplay:10.37,2013-03-20 16:05:00,
2013-03-20 11:08:00,30.2,13.3,30.40,North,5,3.5,10.4,49,0.00,OVC,,0.00,635.0,WeatherDisplay:10.37,2013-03-20 16:08:00,
2013-03-20 11:09:00,30.1,13.2,30.40,WNW,301,6.4,8.1,49,0.00,OVC,,0.00,649.0,WeatherDisplay:10.37,2013-03-20 16:09:00,
2013-03-20 11:10:00,29.9,12.6,30.40,WNW,296,6.3,8.1,48,0.00,OVC,,0.00,650.0,WeatherDisplay:10.37,2013-03-20 16:10:00,
2013-03-20 11:11:00,29.9,13.0,30.40,NNW,339,6.0,9.2,49,0.00,OVC,,0.00,650.0,WeatherDisplay:10.37,2013-03-20 16:11:00,
2013-03-20 11:13:00,29.8,12.5,30.40,NNW,327,7.1,15.0,48,0.00,OVC,,0.00,659.0,WeatherDisplay:10.37,2013-03-20 16:13:00,
2013-03-20 11:14:00,30.2,13.3,30.40,NNW,348,6.5,9.2,49,0.00,OVC,,0.00,664.0,WeatherDisplay:10.37,2013-03-20 16:14:00,
2013-03-20 11:15:00,30.2,13.8,30.40,North,5,3.8,9.2,50,0.00,OVC,,0.00,664.0,WeatherDisplay:10.37,2013-03-20 16:15:00,
2013-03-20 11:16:00,30.5,14.9,30.40,NW,308,5.9,6.0,52,0.00,OVC,,0.00,666.0,WeatherDisplay:10.37,2013-03-20 16:16:00,
2013-03-20 11:18:00,30.8,13.9,30.40,NNW,335,8.0,11.5,49,0.00,OVC,,0.00,671.0,WeatherDisplay:10.37,2013-03-20 16:18:00,
2013-03-20 11:20:00,30.7,12.3,30.40,WNW,293,5.6,11.5,46,0.00,OVC,,0.00,677.0,WeatherDisplay:10.37,2013-03-20 16:20:00,
2013-03-20 11:21:00,31.1,14.6,30.40,NNE,14,3.2,8.0,50,0.00,OVC,,0.00,682.0,WeatherDisplay:10.37,2013-03-20 16:21:00,
2013-03-20 11:23:00,31.2,13.8,30.40,NNE,13,7.1,10.4,48,0.00,OVC,,0.00,680.0,WeatherDisplay:10.37,2013-03-20 16:23:00,
2013-03-20 11:25:00,30.9,13.0,30.40,North,9,6.9,11.0,47,0.00,OVC,,0.00,687.0,WeatherDisplay:10.37,2013-03-20 16:25:00,
2013-03-20 11:27:00,30.6,12.7,30.40,NNE,28,6.5,9.2,47,0.00,OVC,,0.00,691.0,WeatherDisplay:10.37,2013-03-20 16:27:00,
2013-03-20 11:28:00,30.8,14.8,30.40,NNE,18,5.3,11.0,51,0.00,OVC,,0.00,694.0,WeatherDisplay:10.37,2013-03-20 16:28:00,
2013-03-20 11:30:00,31.0,13.1,30.40,NNW,347,8.1,15.0,47,0.00,OVC,,0.00,703.0,WeatherDisplay:10.37,2013-03-20 16:30:00,
2013-03-20 11:32:00,30.9,12.5,30.40,NNW,346,6.6,11.5,46,0.00,OVC,,0.00,708.0,WeatherDisplay:10.37,2013-03-20 16:32:00,
2013-03-20 11:33:00,31.1,13.7,30.40,NW,326,4.9,11.5,48,0.00,OVC,,0.00,712.0,WeatherDisplay:10.37,2013-03-20 16:33:00,
2013-03-20 11:35:00,31.1,11.7,30.40,NW,326,7.2,12.7,44,0.00,OVC,,0.00,714.0,WeatherDisplay:10.37,2013-03-20 16:35:00,
2013-03-20 11:38:00,30.8,11.4,30.40,NNE,19,8.2,13.8,44,0.00,OVC,,0.00,719.0,WeatherDisplay:10.37,2013-03-20 16:38:00,
2013-03-20 11:40:00,30.8,12.4,30.40,NNW,333,4.9,10.4,46,0.00,OVC,,0.00,722.0,WeatherDisplay:10.37,2013-03-20 16:40:00,
2013-03-20 11:43:00,31.4,13.9,30.40,NW,315,5.5,10.4,48,0.00,OVC,,0.00,728.0,WeatherDisplay:10.37,2013-03-20 16:43:00,
2013-03-20 11:45:00,31.7,14.7,30.40,North,5,6.4,10.0,49,0.00,OVC,,0.00,729.0,WeatherDisplay:10.37,2013-03-20 16:45:00,
2013-03-20 11:48:00,31.7,14.2,30.39,North,355,5.7,8.0,48,0.00,OVC,,0.00,737.0,WeatherDisplay:10.37,2013-03-20 16:48:00,
2013-03-20 11:49:00,31.7,12.8,30.39,North,360,5.3,5.8,45,0.00,OVC,,0.00,737.0,WeatherDisplay:10.37,2013-03-20 16:49:00,
2013-03-20 11:50:00,31.9,13.9,30.39,NNE,17,6.6,11.5,47,0.00,OVC,,0.00,742.0,WeatherDisplay:10.37,2013-03-20 16:50:00,
2013-03-20 11:54:00,31.2,10.7,30.39,NNE,13,7.5,11.5,42,0.00,OVC,,0.00,747.0,WeatherDisplay:10.37,2013-03-20 16:54:00,
2013-03-20 11:55:00,31.1,12.2,30.40,North,355,8.8,12.0,45,0.00,OVC,,0.00,752.0,WeatherDisplay:10.37,2013-03-20 16:55:00,
2013-03-20 11:56:00,31.1,11.7,30.39,NNE,22,8.4,11.5,44,0.00,OVC,,0.00,754.0,WeatherDisplay:10.37,2013-03-20 16:56:00,
2013-03-20 11:59:00,31.1,11.7,30.39,North,355,8.9,12.7,44,0.00,OVC,,0.00,759.0,WeatherDisplay:10.37,2013-03-20 16:59:00,
2013-03-20 12:00:00,31.1,11.2,30.39,NNW,348,8.2,11.5,43,0.00,OVC,,0.00,763.0,WeatherDisplay:10.37,2013-03-20 17:00:00,
2013-03-20 12:02:00,31.2,11.8,30.39,North,355,9.3,12.7,44,0.00,OVC,,0.00,765.0,WeatherDisplay:10.37,2013-03-20 17:02:00,
2013-03-20 12:04:00,31.2,12.3,30.39,North,350,8.4,13.8,45,0.00,OVC,,0.00,766.0,WeatherDisplay:10.37,2013-03-20 17:04:00,
2013-03-20 12:06:00,31.4,12.0,30.39,NNE,20,6.2,8.1,44,0.00,OVC,,0.00,768.0,WeatherDisplay:10.37,2013-03-20 17:06:00,
2013-03-20 12:07:00,31.4,12.0,30.39,NNE,12,6.4,8.1,44,0.00,OVC,,0.00,768.0,WeatherDisplay:10.37,2013-03-20 17:07:00,
2013-03-20 12:09:00,31.9,12.9,30.39,NNW,342,9.7,16.1,45,0.00,OVC,,0.00,772.0,WeatherDisplay:10.37,2013-03-20 17:09:00,
2013-03-20 12:12:00,31.5,13.1,30.39,NNW,345,3.7,11.5,46,0.00,OVC,,0.00,775.0,WeatherDisplay:10.37,2013-03-20 17:12:00,
2013-03-20 12:14:00,31.6,13.2,30.39,NNE,17,5.8,11.5,46,0.00,OVC,,0.00,779.0,WeatherDisplay:10.37,2013-03-20 17:14:00,
2013-03-20 12:17:00,32.1,15.5,30.39,North,11,6.9,11.5,50,0.00,OVC,,0.00,780.0,WeatherDisplay:10.37,2013-03-20 17:17:00,
2013-03-20 12:20:00,32.2,11.6,30.39,NNW,329,5.7,9.2,42,0.00,OVC,,0.00,782.0,WeatherDisplay:10.37,2013-03-20 17:20:00,
2013-03-20 12:22:00,32.3,13.3,30.39,NW,310,6.0,10.4,45,0.00,OVC,,0.00,789.0,WeatherDisplay:10.37,2013-03-20 17:22:00,
2013-03-20 12:25:00,33.5,15.4,30.39,NNE,18,5.8,8.1,47,0.00,OVC,,0.00,793.0,WeatherDisplay:10.37,2013-03-20 17:25:00,
2013-03-20 12:27:00,33.2,14.1,30.39,NNW,328,5.9,9.2,45,0.00,OVC,,0.00,796.0,WeatherDisplay:10.37,2013-03-20 17:27:00,
2013-03-20 12:30:00,32.7,11.6,30.38,WNW,285,5.1,10.4,41,0.00,OVC,,0.00,800.0,WeatherDisplay:10.37,2013-03-20 17:30:00,
2013-03-20 12:32:00,32.8,12.2,30.39,NW,319,8.0,12.7,42,0.00,OVC,,0.00,803.0,WeatherDisplay:10.37,2013-03-20 17:32:00,
2013-03-20 12:33:00,32.7,11.6,30.38,NNW,342,4.9,12.7,41,0.00,OVC,,0.00,803.0,WeatherDisplay:10.37,2013-03-20 17:33:00,
2013-03-20 12:35:00,33.0,12.9,30.38,NW,316,7.8,11.5,43,0.00,OVC,,0.00,802.0,WeatherDisplay:10.37,2013-03-20 17:35:00,
2013-03-20 12:37:00,33.0,12.9,30.38,NNW,338,7.4,9.2,43,0.00,OVC,,0.00,809.0,WeatherDisplay:10.37,2013-03-20 17:37:00,
2013-03-20 12:38:00,32.9,12.3,30.38,WNW,294,6.9,9.2,42,0.00,OVC,,0.00,809.0,WeatherDisplay:10.37,2013-03-20 17:38:00,
2013-03-20 12:40:00,32.7,12.1,30.38,North,360,5.6,9.2,42,0.00,OVC,,0.00,812.0,WeatherDisplay:10.37,2013-03-20 17:40:00,
2013-03-20 12:42:00,32.8,12.7,30.38,WNW,282,7.4,10.4,43,0.00,OVC,,0.00,812.0,WeatherDisplay:10.37,2013-03-20 17:42:00,
2013-03-20 12:43:00,32.9,12.8,30.38,NW,306,6.8,20.0,43,0.00,OVC,,0.00,812.0,WeatherDisplay:10.37,2013-03-20 17:43:00,
2013-03-20 12:45:00,32.9,11.7,30.38,NNE,24,7.3,11.5,41,0.00,OVC,,0.00,816.0,WeatherDisplay:10.37,2013-03-20 17:45:00,
2013-03-20 12:47:00,33.0,12.9,30.38,NNW,344,9.7,13.8,43,0.00,OVC,,0.00,816.0,WeatherDisplay:10.37,2013-03-20 17:47:00,
2013-03-20 12:48:00,33.0,11.8,30.38,North,355,6.8,11.5,41,0.00,OVC,,0.00,817.0,WeatherDisplay:10.37,2013-03-20 17:48:00,
2013-03-20 12:50:00,33.5,14.4,30.37,NNE,28,6.3,10.4,45,0.00,OVC,,0.00,817.0,WeatherDisplay:10.37,2013-03-20 17:50:00,
2013-03-20 12:53:00,33.6,13.5,30.37,NNW,333,7.5,10.4,43,0.00,OVC,,0.00,821.0,WeatherDisplay:10.37,2013-03-20 17:53:00,
2013-03-20 12:56:00,34.1,13.4,30.37,WNW,293,9.1,12.0,42,0.00,OVC,,0.00,826.0,WeatherDisplay:10.37,2013-03-20 17:56:00,
2013-03-20 12:58:00,34.3,13.0,30.37,NNW,343,7.5,13.0,41,0.00,OVC,,0.00,826.0,WeatherDisplay:10.37,2013-03-20 17:58:00,
2013-03-20 13:01:00,33.7,11.3,30.36,NNW,343,4.3,13.8,39,0.00,OVC,,0.00,826.0,WeatherDisplay:10.37,2013-03-20 18:01:00,
2013-03-20 13:03:00,33.9,13.7,30.36,NW,315,6.7,9.0,43,0.00,OVC,,0.00,828.0,WeatherDisplay:10.37,2013-03-20 18:03:00,
2013-03-20 13:06:00,34.0,13.3,30.36,NNW,347,5.2,8.1,42,0.00,OVC,,0.00,831.0,WeatherDisplay:10.37,2013-03-20 18:06:00,
2013-03-20 13:08:00,34.8,13.5,30.36,North,9,7.2,9.2,41,0.00,OVC,,0.00,830.0,WeatherDisplay:10.37,2013-03-20 18:08:00,
2013-03-20 13:12:00,34.9,14.1,30.36,NNW,328,7.3,11.5,42,0.00,OVC,,0.00,835.0,WeatherDisplay:10.37,2013-03-20 18:12:00,
2013-03-20 13:13:00,34.7,12.2,30.36,NW,304,11.9,11.9,39,0.00,OVC,,0.00,833.0,WeatherDisplay:10.37,2013-03-20 18:13:00,
2013-03-20 13:17:00,34.1,11.1,30.36,NW,318,10.7,15.0,38,0.00,OVC,,0.00,837.0,WeatherDisplay:10.37,2013-03-20 18:17:00,
2013-03-20 13:18:00,34.1,11.7,30.36,NNW,343,5.9,12.7,39,0.00,OVC,,0.00,833.0,WeatherDisplay:10.37,2013-03-20 18:18:00,
2013-03-20 13:19:00,34.4,13.6,30.36,NNE,21,7.2,9.2,42,0.00,OVC,,0.00,833.0,WeatherDisplay:10.37,2013-03-20 18:19:00,
2013-03-20 13:23:00,34.2,11.2,30.36,NNW,347,7.6,12.0,38,0.00,OVC,,0.00,837.0,WeatherDisplay:10.37,2013-03-20 18:23:00,
2013-03-20 13:24:00,34.0,11.0,30.36,NW,313,7.6,12.7,38,0.00,OVC,,0.00,833.0,WeatherDisplay:10.37,2013-03-20 18:24:00,
2013-03-20 13:28:00,33.9,12.6,30.36,WNW,284,2.9,4.6,41,0.00,OVC,,0.00,831.0,WeatherDisplay:10.37,2013-03-20 18:28:00,
2013-03-20 13:29:00,33.9,12.7,30.35,NW,326,2.0,14.0,41,0.00,OVC,,0.00,831.0,WeatherDisplay:10.37,2013-03-20 18:29:00,
2013-03-20 13:33:00,34.8,13.5,30.35,NNE,13,5.7,8.1,41,0.00,OVC,,0.00,837.0,WeatherDisplay:10.37,2013-03-20 18:33:00,
2013-03-20 13:34:00,35.0,13.6,30.35,North,355,7.0,13.0,41,0.00,OVC,,0.00,835.0,WeatherDisplay:10.37,2013-03-20 18:34:00,
2013-03-20 13:35:00,35.0,12.5,30.35,NW,308,9.9,12.7,39,0.00,OVC,,0.00,833.0,WeatherDisplay:10.37,2013-03-20 18:35:00,
2013-03-20 13:38:00,35.3,12.8,30.35,NW,325,5.9,10.4,39,0.00,OVC,,0.00,835.0,WeatherDisplay:10.37,2013-03-20 18:38:00,
2013-03-20 13:39:00,35.3,12.2,30.35,NNW,342,5.8,10.4,38,0.00,OVC,,0.00,835.0,WeatherDisplay:10.37,2013-03-20 18:39:00,
2013-03-20 13:40:00,35.2,12.1,30.35,NNW,327,5.5,8.1,38,0.00,OVC,,0.00,835.0,WeatherDisplay:10.37,2013-03-20 18:40:00,
2013-03-20 13:43:00,35.6,13.0,30.35,NW,318,7.2,10.4,39,0.00,OVC,,0.00,835.0,WeatherDisplay:10.37,2013-03-20 18:43:00,
2013-03-20 13:44:00,35.5,13.0,30.35,NNW,343,8.0,14.0,39,0.00,OVC,,0.00,835.0,WeatherDisplay:10.37,2013-03-20 18:44:00,
2013-03-20 13:45:00,35.4,12.3,30.34,NNE,17,6.9,11.5,38,0.00,OVC,,0.00,837.0,WeatherDisplay:10.37,2013-03-20 18:45:00,
2013-03-20 13:49:00,35.3,12.2,30.34,NW,325,4.9,11.5,38,0.00,OVC,,0.00,835.0,WeatherDisplay:10.37,2013-03-20 18:49:00,
2013-03-20 13:50:00,35.4,12.3,30.34,WNW,295,4.6,8.1,38,0.00,OVC,,0.00,837.0,WeatherDisplay:10.37,2013-03-20 18:50:00,
2013-03-20 13:54:00,35.2,12.1,30.34,NNW,333,8.1,9.2,38,0.00,OVC,,0.00,833.0,WeatherDisplay:10.37,2013-03-20 18:54:00,
2013-03-20 13:55:00,35.2,10.9,30.34,NW,306,5.3,11.5,36,0.00,OVC,,0.00,833.0,WeatherDisplay:10.37,2013-03-20 18:55:00,
2013-03-20 13:59:00,36.4,12.6,30.33,NNW,339,9.4,13.8,37,0.00,OVC,,0.00,830.0,WeatherDisplay:10.37,2013-03-20 18:59:00,
2013-03-20 14:00:00,36.3,11.2,30.33,NE,37,7.1,12.7,35,0.00,OVC,,0.00,830.0,WeatherDisplay:10.37,2013-03-20 19:00:00,
2013-03-20 14:04:00,36.1,12.3,30.33,NNE,17,7.8,11.5,37,0.00,OVC,,0.00,826.0,WeatherDisplay:10.37,2013-03-20 19:04:00,
2013-03-20 14:05:00,35.9,11.5,30.32,North,9,7.4,11.5,36,0.00,OVC,,0.00,826.0,WeatherDisplay:10.37,2013-03-20 19:05:00,
2013-03-20 14:09:00,35.7,10.7,30.32,NNW,342,5.5,9.2,35,0.00,OVC,,0.00,824.0,WeatherDisplay:10.37,2013-03-20 19:09:00,
2013-03-20 14:10:00,35.7,12.5,30.32,NW,317,4.5,9.2,38,0.00,OVC,,0.00,824.0,WeatherDisplay:10.37,2013-03-20 19:10:00,
2013-03-20 14:11:00,35.6,11.2,30.32,NNE,12,6.0,11.5,36,0.00,OVC,,0.00,821.0,WeatherDisplay:10.37,2013-03-20 19:11:00,
2013-03-20 14:14:00,36.2,12.4,30.32,NNW,340,9.3,12.7,37,0.00,OVC,,0.00,824.0,WeatherDisplay:10.37,2013-03-20 19:14:00,
2013-03-20 14:15:00,36.1,11.0,30.32,NNW,346,7.6,10.4,35,0.00,OVC,,0.00,821.0,WeatherDisplay:10.37,2013-03-20 19:15:00,
2013-03-20 14:17:00,36.1,12.9,30.32,NW,316,6.8,10.4,38,0.00,OVC,,0.00,823.0,WeatherDisplay:10.37,2013-03-20 19:17:00,
2013-03-20 14:19:00,36.2,11.8,30.32,NNW,329,4.0,6.9,36,0.00,OVC,,0.00,817.0,WeatherDisplay:10.37,2013-03-20 19:19:00,
2013-03-20 14:20:00,36.5,12.0,30.32,NNW,344,3.8,6.9,36,0.00,OVC,,0.00,817.0,WeatherDisplay:10.37,2013-03-20 19:20:00,
2013-03-20 14:21:00,36.7,12.2,30.32,NNE,14,3.2,6.9,36,0.00,OVC,,0.00,817.0,WeatherDisplay:10.37,2013-03-20 19:21:00,
2013-03-20 14:22:00,37.0,12.5,30.31,NW,325,4.8,10.0,36,0.00,OVC,,0.00,814.0,WeatherDisplay:10.37,2013-03-20 19:22:00,
2013-03-20 14:25:00,36.5,11.4,30.31,WSW,250,6.3,10.4,35,0.00,OVC,,0.00,812.0,WeatherDisplay:10.37,2013-03-20 19:25:00,
2013-03-20 14:26:00,36.4,10.7,30.31,NNE,18,5.7,10.4,34,0.00,OVC,,0.00,812.0,WeatherDisplay:10.37,2013-03-20 19:26:00,
2013-03-20 14:27:00,36.5,12.0,30.31,WNW,302,3.7,8.1,36,0.00,OVC,,0.00,809.0,WeatherDisplay:10.37,2013-03-20 19:27:00,
2013-03-20 14:30:00,37.3,12.1,30.31,NNE,16,6.2,9.2,35,0.00,OVC,,0.00,807.0,WeatherDisplay:10.37,2013-03-20 19:30:00,
2013-03-20 14:31:00,37.4,12.8,30.31,NW,318,4.5,10.4,36,0.00,OVC,,0.00,805.0,WeatherDisplay:10.37,2013-03-20 19:31:00,
2013-03-20 14:32:00,37.5,12.9,30.31,NNW,342,5.2,11.5,36,0.00,OVC,,0.00,805.0,WeatherDisplay:10.37,2013-03-20 19:32:00,
2013-03-20 14:36:00,36.7,10.3,30.30,NW,321,7.1,12.7,33,0.00,OVC,,0.00,805.0,WeatherDisplay:10.37,2013-03-20 19:36:00,
2013-03-20 14:37:00,36.4,10.7,30.30,North,355,7.2,11.5,34,0.00,OVC,,0.00,802.0,WeatherDisplay:10.37,2013-03-20 19:37:00,
2013-03-20 14:41:00,36.8,9.7,30.29,NNW,336,8.0,11.5,32,0.00,OVC,,0.00,798.0,WeatherDisplay:10.37,2013-03-20 19:41:00,
2013-03-20 14:42:00,36.9,11.1,30.30,NNW,346,5.0,12.0,34,0.00,OVC,,0.00,798.0,WeatherDisplay:10.37,2013-03-20 19:42:00,
2013-03-20 14:43:00,37.2,11.4,30.30,WSW,238,8.6,15.0,34,0.00,OVC,,0.00,796.0,WeatherDisplay:10.37,2013-03-20 19:43:00,
2013-03-20 14:46:00,37.5,10.3,30.30,NW,321,7.5,13.8,32,0.00,OVC,,0.00,791.0,WeatherDisplay:10.37,2013-03-20 19:46:00,
2013-03-20 14:47:00,37.4,9.5,30.29,WNW,302,10.2,12.7,31,0.00,OVC,,0.00,791.0,WeatherDisplay:10.37,2013-03-20 19:47:00,
2013-03-20 14:48:00,37.2,9.3,30.29,North,5,10.7,13.8,31,0.00,OVC,,0.00,791.0,WeatherDisplay:10.37,2013-03-20 19:48:00,
2013-03-20 14:51:00,37.0,9.8,30.29,NW,307,8.4,15.0,32,0.00,OVC,,0.00,784.0,WeatherDisplay:10.37,2013-03-20 19:51:00,
2013-03-20 14:52:00,36.8,9.7,30.29,NNW,337,5.7,11.5,32,0.00,OVC,,0.00,780.0,WeatherDisplay:10.37,2013-03-20 19:52:00,
2013-03-20 14:53:00,36.8,9.7,30.29,NNW,329,5.2,11.5,32,0.00,OVC,,0.00,780.0,WeatherDisplay:10.37,2013-03-20 19:53:00,
2013-03-20 14:56:00,36.8,11.0,30.29,NNW,329,5.0,8.0,34,0.00,OVC,,0.00,779.0,WeatherDisplay:10.37,2013-03-20 19:56:00,
2013-03-20 14:57:00,36.8,9.7,30.28,NNW,333,4.5,10.4,32,0.00,OVC,,0.00,775.0,WeatherDisplay:10.37,2013-03-20 19:57:00,
2013-03-20 14:58:00,36.8,9.7,30.28,NW,321,4.6,10.4,32,0.00,OVC,,0.00,775.0,WeatherDisplay:10.37,2013-03-20 19:58:00,
2013-03-20 15:02:00,37.1,9.9,30.28,NW,319,5.4,12.7,32,0.00,OVC,,0.00,768.0,WeatherDisplay:10.37,2013-03-20 20:02:00,
2013-03-20 15:03:00,37.4,11.5,30.28,NW,304,3.6,6.9,34,0.00,OVC,,0.00,766.0,WeatherDisplay:10.37,2013-03-20 20:03:00,
2013-03-20 15:07:00,37.3,10.1,30.28,NW,309,7.0,12.7,32,0.00,OVC,,0.00,763.0,WeatherDisplay:10.37,2013-03-20 20:07:00,
2013-03-20 15:08:00,37.2,9.3,30.28,NW,315,7.4,12.0,31,0.00,OVC,,0.00,761.0,WeatherDisplay:10.37,2013-03-20 20:08:00,
2013-03-20 15:12:00,37.4,9.5,30.28,NW,323,7.8,11.5,31,0.00,OVC,,0.00,752.0,WeatherDisplay:10.37,2013-03-20 20:12:00,
2013-03-20 15:13:00,37.2,10.0,30.27,WNW,300,3.2,10.4,32,0.00,OVC,,0.00,751.0,WeatherDisplay:10.37,2013-03-20 20:13:00,
2013-03-20 15:17:00,37.2,10.0,30.27,NNE,14,8.6,13.8,32,0.00,OVC,,0.00,745.0,WeatherDisplay:10.37,2013-03-20 20:17:00,
2013-03-20 15:18:00,37.0,9.1,30.27,North,5,6.5,13.8,31,0.00,OVC,,0.00,740.0,WeatherDisplay:10.37,2013-03-20 20:18:00,
2013-03-20 15:19:00,37.0,9.1,30.27,NNE,26,5.0,11.5,31,0.00,OVC,,0.00,738.0,WeatherDisplay:10.37,2013-03-20 20:19:00,
2013-03-20 15:22:00,37.6,11.0,30.26,North,5,9.5,11.5,33,0.00,OVC,,0.00,733.0,WeatherDisplay:10.37,2013-03-20 20:22:00,
2013-03-20 15:23:00,37.6,11.0,30.26,NNE,14,10.1,16.1,33,0.00,OVC,,0.00,731.0,WeatherDisplay:10.37,2013-03-20 20:23:00,
2013-03-20 15:24:00,37.6,11.0,30.27,North,5,10.9,16.1,33,0.00,OVC,,0.00,729.0,WeatherDisplay:10.37,2013-03-20 20:24:00,
2013-03-20 15:27:00,37.7,10.4,30.27,North,10,9.4,16.1,32,0.00,OVC,,0.00,722.0,WeatherDisplay:10.37,2013-03-20 20:27:00,
2013-03-20 15:28:00,37.6,10.4,30.27,NNE,32,8.0,11.5,32,0.00,OVC,,0.00,722.0,WeatherDisplay:10.37,2013-03-20 20:28:00,
2013-03-20 15:29:00,37.5,10.3,30.27,NNW,329,6.7,11.5,32,0.00,OVC,,0.00,721.0,WeatherDisplay:10.37,2013-03-20 20:29:00,
2013-03-20 15:33:00,37.6,10.4,30.26,North,355,9.3,13.8,32,0.00,OVC,,0.00,714.0,WeatherDisplay:10.37,2013-03-20 20:33:00,
2013-03-20 15:34:00,37.3,9.4,30.26,North,355,9.1,13.8,31,0.00,OVC,,0.00,710.0,WeatherDisplay:10.37,2013-03-20 20:34:00,
2013-03-20 15:38:00,37.6,11.0,30.26,WNW,285,4.4,8.1,33,0.00,OVC,,0.00,703.0,WeatherDisplay:10.37,2013-03-20 20:38:00,
2013-03-20 15:39:00,37.9,12.0,30.26,NNW,333,6.0,10.0,34,0.00,OVC,,0.00,698.0,WeatherDisplay:10.37,2013-03-20 20:39:00,
2013-03-20 15:40:00,38.0,11.4,30.26,WNW,296,6.8,10.4,33,0.00,OVC,,0.00,698.0,WeatherDisplay:10.37,2013-03-20 20:40:00,
2013-03-20 15:43:00,38.1,12.2,30.26,NW,307,9.8,13.8,34,0.00,OVC,,0.00,691.0,WeatherDisplay:10.37,2013-03-20 20:43:00,
2013-03-20 15:44:00,38.0,11.4,30.26,NNW,348,7.5,15.0,33,0.00,OVC,,0.00,687.0,WeatherDisplay:10.37,2013-03-20 20:44:00,
2013-03-20 15:45:00,38.4,11.8,30.26,North,5,6.1,11.5,33,0.00,OVC,,0.00,682.0,WeatherDisplay:10.37,2013-03-20 20:45:00,
2013-03-20 15:48:00,38.3,11.0,30.26,NNE,24,11.1,15.0,32,0.00,OVC,,0.00,677.0,WeatherDisplay:10.37,2013-03-20 20:48:00,
2013-03-20 15:49:00,38.2,11.6,30.26,NNW,329,7.8,15.0,33,0.00,OVC,,0.00,675.0,WeatherDisplay:10.37,2013-03-20 20:49:00,
2013-03-20 15:50:00,38.0,10.7,30.26,NW,312,4.6,11.0,32,0.00,OVC,,0.00,671.0,WeatherDisplay:10.37,2013-03-20 20:50:00,
2013-03-20 15:53:00,38.0,11.4,30.25,NNE,12,5.0,11.5,33,0.00,OVC,,0.00,668.0,WeatherDisplay:10.37,2013-03-20 20:53:00,
2013-03-20 15:54:00,38.1,12.2,30.25,NNE,29,2.8,10.4,34,0.00,OVC,,0.00,663.0,WeatherDisplay:10.37,2013-03-20 20:54:00,
2013-03-20 15:55:00,38.4,11.8,30.25,NW,309,4.9,9.0,33,0.00,OVC,,0.00,661.0,WeatherDisplay:10.37,2013-03-20 20:55:00,
2013-03-20 15:58:00,38.8,12.1,30.25,North,355,5.3,15.0,33,0.00,OVC,,0.00,652.0,WeatherDisplay:10.37,2013-03-20 20:58:00,
2013-03-20 15:59:00,38.8,12.8,30.25,NNE,13,4.7,8.1,34,0.00,OVC,,0.00,649.0,WeatherDisplay:10.37,2013-03-20 20:59:00,
2013-03-20 16:01:00,38.9,12.9,30.25,NNE,26,8.1,11.5,34,0.00,OVC,,0.00,643.0,WeatherDisplay:10.37,2013-03-20 21:01:00,
2013-03-20 16:04:00,38.9,13.5,30.25,NNE,29,6.6,10.4,35,0.00,OVC,,0.00,642.0,WeatherDisplay:10.37,2013-03-20 21:04:00,
2013-03-20 16:05:00,39.0,13.6,30.25,North,360,8.7,12.7,35,0.00,OVC,,0.00,640.0,WeatherDisplay:10.37,2013-03-20 21:05:00,
2013-03-20 16:06:00,38.8,12.8,30.25,North,360,4.5,6.9,34,0.00,OVC,,0.00,633.0,WeatherDisplay:10.37,2013-03-20 21:06:00,
2013-03-20 16:09:00,38.5,11.8,30.25,NW,321,5.0,11.5,33,0.00,OVC,,0.00,626.0,WeatherDisplay:10.37,2013-03-20 21:09:00,
2013-03-20 16:10:00,38.5,11.8,30.24,NNW,327,5.7,8.1,33,0.00,OVC,,0.00,622.0,WeatherDisplay:10.37,2013-03-20 21:10:00,
2013-03-20 16:12:00,38.4,11.8,30.24,NE,44,7.4,10.4,33,0.00,OVC,,0.00,621.0,WeatherDisplay:10.37,2013-03-20 21:12:00,
2013-03-20 16:14:00,38.4,12.4,30.24,NNW,348,3.4,6.9,34,0.00,OVC,,0.00,615.0,WeatherDisplay:10.37,2013-03-20 21:14:00,
2013-03-20 16:15:00,38.6,12.6,30.24,NW,316,5.8,9.0,34,0.00,OVC,,0.00,610.0,WeatherDisplay:10.37,2013-03-20 21:15:00,
2013-03-20 16:17:00,38.9,14.2,30.24,NNE,13,9.0,11.5,36,0.00,OVC,,0.00,606.0,WeatherDisplay:10.37,2013-03-20 21:17:00,
2013-03-20 16:20:00,39.0,13.0,30.24,NE,36,4.8,9.2,34,0.00,OVC,,0.00,601.0,WeatherDisplay:10.37,2013-03-20 21:20:00,
2013-03-20 16:22:00,38.6,12.6,30.24,NNW,344,5.3,9.2,34,0.00,OVC,,0.00,594.0,WeatherDisplay:10.37,2013-03-20 21:22:00,
2013-03-20 16:25:00,38.2,12.9,30.24,NNE,17,5.2,7.0,35,0.00,OVC,,0.00,585.0,WeatherDisplay:10.37,2013-03-20 21:25:00,
2013-03-20 16:27:00,38.2,12.9,30.23,NNW,333,7.3,15.0,35,0.00,OVC,,0.00,578.0,WeatherDisplay:10.37,2013-03-20 21:27:00,
2013-03-20 16:30:00,38.3,12.3,30.23,NNE,15,5.8,9.2,34,0.00,OVC,,0.00,571.0,WeatherDisplay:10.37,2013-03-20 21:30:00,
2013-03-20 16:32:00,38.8,13.4,30.23,North,355,6.7,10.4,35,0.00,OVC,,0.00,566.0,WeatherDisplay:10.37,2013-03-20 21:32:00,
2013-03-20 16:35:00,38.6,12.6,30.23,North,9,8.3,12.7,34,0.00,OVC,,0.00,557.0,WeatherDisplay:10.37,2013-03-20 21:35:00,
2013-03-20 16:38:00,38.5,13.2,30.23,NNE,15,5.8,9.2,35,0.00,OVC,,0.00,550.0,WeatherDisplay:10.37,2013-03-20 21:38:00,
2013-03-20 16:40:00,38.5,12.5,30.23,NNW,342,7.5,11.5,34,0.00,OVC,,0.00,541.0,WeatherDisplay:10.37,2013-03-20 21:40:00,
2013-03-20 16:41:00,38.5,11.8,30.23,North,360,8.0,12.7,33,0.00,OVC,,0.00,536.0,WeatherDisplay:10.37,2013-03-20 21:41:00,
2013-03-20 16:43:00,38.6,13.3,30.23,NNE,14,8.1,11.5,35,0.00,OVC,,0.00,533.0,WeatherDisplay:10.37,2013-03-20 21:43:00,
2013-03-20 16:45:00,38.6,12.6,30.23,NNE,26,7.2,11.5,34,0.00,OVC,,0.00,526.0,WeatherDisplay:10.37,2013-03-20 21:45:00,
2013-03-20 16:46:00,38.5,12.5,30.23,North,10,5.7,8.1,34,0.00,OVC,,0.00,524.0,WeatherDisplay:10.37,2013-03-20 21:46:00,
2013-03-20 16:47:00,38.5,12.5,30.22,North,355,5.9,8.1,34,0.00,OVC,,0.00,522.0,WeatherDisplay:10.37,2013-03-20 21:47:00,
2013-03-20 16:48:00,38.6,13.9,30.22,NE,37,5.4,9.2,36,0.00,OVC,,0.00,519.0,WeatherDisplay:10.37,2013-03-20 21:48:00,
2013-03-20 16:50:00,39.1,13.7,30.22,North,355,3.6,7.0,35,0.00,OVC,,0.00,513.0,WeatherDisplay:10.37,2013-03-20 21:50:00,
2013-03-20 16:52:00,39.0,13.6,30.22,NNE,19,7.8,12.0,35,0.00,OVC,,0.00,508.0,WeatherDisplay:10.37,2013-03-20 21:52:00,
2013-03-20 16:54:00,38.9,14.2,30.22,NNE,17,6.9,10.4,36,0.00,OVC,,0.00,503.0,WeatherDisplay:10.37,2013-03-20 21:54:00,
2013-03-20 16:56:00,39.0,13.6,30.21,NE,34,6.7,10.4,35,0.00,OVC,,0.00,494.0,WeatherDisplay:10.37,2013-03-20 21:56:00,
2013-03-20 16:57:00,39.0,13.6,30.21,North,355,4.3,10.4,35,0.00,OVC,,0.00,492.0,WeatherDisplay:10.37,2013-03-20 21:57:00,
2013-03-20 16:59:00,38.9,12.9,30.21,NNE,13,5.8,10.4,34,0.00,OVC,,0.00,485.0,WeatherDisplay:10.37,2013-03-20 21:59:00,
2013-03-20 17:02:00,38.8,12.8,30.21,NNW,344,4.6,9.2,34,0.00,OVC,,0.00,476.0,WeatherDisplay:10.37,2013-03-20 22:02:00,
2013-03-20 17:03:00,38.9,14.2,30.21,NNE,19,5.1,10.4,36,0.00,OVC,,0.00,471.0,WeatherDisplay:10.37,2013-03-20 22:03:00,
2013-03-20 17:04:00,39.2,13.8,30.21,NNW,348,6.3,10.4,35,0.00,OVC,,0.00,471.0,WeatherDisplay:10.37,2013-03-20 22:04:00,
2013-03-20 17:07:00,39.2,13.1,30.21,North,360,7.7,11.5,34,0.00,OVC,,0.00,459.0,WeatherDisplay:10.37,2013-03-20 22:07:00,
2013-03-20 17:08:00,39.1,12.4,30.21,NNE,13,6.6,12.7,33,0.00,OVC,,0.00,459.0,WeatherDisplay:10.37,2013-03-20 22:08:00,
2013-03-20 17:09:00,38.8,12.8,30.21,North,11,7.5,10.4,34,0.00,OVC,,0.00,454.0,WeatherDisplay:10.37,2013-03-20 22:09:00,
2013-03-20 17:12:00,38.5,11.8,30.21,NNW,344,6.0,11.5,33,0.00,OVC,,0.00,443.0,WeatherDisplay:10.37,2013-03-20 22:12:00,
2013-03-20 17:13:00,38.6,12.6,30.21,NNW,344,5.4,11.5,34,0.00,OVC,,0.00,443.0,WeatherDisplay:10.37,2013-03-20 22:13:00,
2013-03-20 17:14:00,38.7,12.0,30.21,NE,43,7.1,11.5,33,0.00,OVC,,0.00,434.0,WeatherDisplay:10.37,2013-03-20 22:14:00,
2013-03-20 17:18:00,38.9,11.5,30.21,North,350,9.0,17.3,32,0.00,OVC,,0.00,425.0,WeatherDisplay:10.37,2013-03-20 22:18:00,
2013-03-20 17:19:00,39.0,11.6,30.21,NW,309,6.5,10.4,32,0.00,OVC,,0.00,26.0,WeatherDisplay:10.37,2013-03-20 22:19:00,
2013-03-20 17:23:00,38.9,11.5,30.21,North,5,7.4,11.5,32,0.00,OVC,,0.00,16.0,WeatherDisplay:10.37,2013-03-20 22:23:00,
2013-03-20 17:25:00,38.8,12.1,30.20,WNW,295,5.3,8.1,33,0.00,OVC,,0.00,404.0,WeatherDisplay:10.37,2013-03-20 22:25:00,
2013-03-20 17:28:00,38.9,10.8,30.21,West,274,7.3,12.7,31,0.00,OVC,,0.00,397.0,WeatherDisplay:10.37,2013-03-20 22:28:00,
2013-03-20 17:29:00,38.9,10.8,30.20,NNW,332,5.0,13.0,31,0.00,OVC,,0.00,397.0,WeatherDisplay:10.37,2013-03-20 22:29:00,
2013-03-20 17:30:00,38.9,10.8,30.20,NNE,18,4.7,8.0,31,0.00,OVC,,0.00,396.0,WeatherDisplay:10.37,2013-03-20 22:30:00,
2013-03-20 17:33:00,39.1,11.0,30.21,NNW,342,8.8,11.0,31,0.00,OVC,,0.00,387.0,WeatherDisplay:10.37,2013-03-20 22:33:00,
2013-03-20 17:34:00,38.9,10.8,30.21,NNW,338,8.6,12.7,31,0.00,OVC,,0.00,383.0,WeatherDisplay:10.37,2013-03-20 22:34:00,
2013-03-20 17:35:00,38.8,10.0,30.21,NNW,335,6.6,11.5,30,0.00,OVC,,0.00,378.0,WeatherDisplay:10.37,2013-03-20 22:35:00,
2013-03-20 17:38:00,38.6,11.2,30.21,NNW,330,4.2,8.1,32,0.00,OVC,,0.00,369.0,WeatherDisplay:10.37,2013-03-20 22:38:00,
2013-03-20 17:39:00,38.7,11.3,30.21,North,349,7.0,10.4,32,0.00,OVC,,0.00,366.0,WeatherDisplay:10.37,2013-03-20 22:39:00,
2013-03-20 17:41:00,38.8,10.7,30.21,NNE,22,7.3,8.1,31,0.00,OVC,,0.00,359.0,WeatherDisplay:10.37,2013-03-20 22:41:00,
2013-03-20 17:43:00,38.6,10.5,30.20,NNE,30,5.5,8.1,31,0.00,OVC,,0.00,352.0,WeatherDisplay:10.37,2013-03-20 22:43:00,
2013-03-20 17:44:00,38.6,10.5,30.20,NNE,18,5.8,8.1,31,0.00,OVC,,0.00,348.0,WeatherDisplay:10.37,2013-03-20 22:44:00,
2013-03-20 17:46:00,38.5,10.4,30.20,North,350,6.2,11.5,31,0.00,OVC,,0.00,341.0,WeatherDisplay:10.37,2013-03-20 22:46:00,
2013-03-20 17:48:00,38.6,10.5,30.20,NNW,348,7.6,9.2,31,0.00,OVC,,0.00,332.0,WeatherDisplay:10.37,2013-03-20 22:48:00,
2013-03-20 17:49:00,38.7,10.6,30.20,North,355,7.8,9.2,31,0.00,OVC,,0.00,332.0,WeatherDisplay:10.37,2013-03-20 22:49:00,
2013-03-20 17:52:00,38.9,10.1,30.20,NNW,327,7.5,8.1,30,0.00,OVC,,0.00,320.0,WeatherDisplay:10.37,2013-03-20 22:52:00,
2013-03-20 17:54:00,38.7,9.1,30.20,North,355,9.1,11.5,29,0.00,OVC,,0.00,313.0,WeatherDisplay:10.37,2013-03-20 22:54:00,
2013-03-20 17:57:00,38.6,10.5,30.20,North,355,4.1,9.0,31,0.00,OVC,,0.00,301.0,WeatherDisplay:10.37,2013-03-20 22:57:00,
2013-03-20 17:59:00,38.5,10.4,30.20,NNW,347,5.3,11.5,31,0.00,OVC,,0.00,294.0,WeatherDisplay:10.37,2013-03-20 22:59:00,
2013-03-20 18:00:00,38.4,9.6,30.20,NNE,12,6.0,9.2,30,0.00,CLR,,0.00,292.0,WeatherDisplay:10.37,2013-03-20 23:00:00,
2013-03-20 18:02:00,38.3,10.3,30.20,North,5,8.0,11.5,31,0.00,CLR,,0.00,279.0,WeatherDisplay:10.37,2013-03-20 23:02:00,
2013-03-20 18:04:00,38.1,9.4,30.20,NNE,18,4.3,9.2,30,0.00,CLR,,0.00,272.0,WeatherDisplay:10.37,2013-03-20 23:04:00,
2013-03-20 18:05:00,38.0,10.0,30.20,NNE,17,3.4,4.6,31,0.00,CLR,,0.00,271.0,WeatherDisplay:10.37,2013-03-20 23:05:00,
2013-03-20 18:07:00,38.1,10.1,30.20,NNE,12,2.7,4.6,31,0.00,CLR,,0.00,258.0,WeatherDisplay:10.37,2013-03-20 23:07:00,
2013-03-20 18:09:00,38.3,10.3,30.20,NNW,344,3.0,4.6,31,0.00,CLR,,0.00,251.0,WeatherDisplay:10.37,2013-03-20 23:09:00,
2013-03-20 18:10:00,38.3,10.3,30.20,NNW,338,3.6,6.0,31,0.00,CLR,,0.00,248.0,WeatherDisplay:10.37,2013-03-20 23:10:00,
2013-03-20 18:12:00,38.3,9.5,30.19,NNW,343,5.0,9.2,30,0.00,CLR,,0.00,237.0,WeatherDisplay:10.37,2013-03-20 23:12:00,
2013-03-20 18:14:00,38.2,9.4,30.19,NNW,344,6.9,8.1,30,0.00,CLR,,0.00,230.0,WeatherDisplay:10.37,2013-03-20 23:14:00,
2013-03-20 18:15:00,38.1,9.4,30.20,NNE,14,5.6,9.2,30,0.00,CLR,,0.00,223.0,WeatherDisplay:10.37,2013-03-20 23:15:00,
2013-03-20 18:17:00,38.0,9.3,30.19,NNW,329,4.8,8.1,30,0.00,CLR,,0.00,216.0,WeatherDisplay:10.37,2013-03-20 23:17:00,
2013-03-20 18:19:00,37.9,9.2,30.19,NNW,345,3.2,8.1,30,0.00,CLR,,0.00,207.0,WeatherDisplay:10.37,2013-03-20 23:19:00,
2013-03-20 18:20:00,37.9,9.9,30.19,NW,321,3.3,7.0,31,0.00,CLR,,0.00,200.0,WeatherDisplay:10.37,2013-03-20 23:20:00,
2013-03-20 18:22:00,37.9,9.9,30.19,NNE,13,3.8,6.9,31,0.00,CLR,,0.00,193.0,WeatherDisplay:10.37,2013-03-20 23:22:00,
2013-03-20 18:24:00,37.8,9.1,30.19,NNW,330,3.5,5.8,30,0.00,CLR,,0.00,186.0,WeatherDisplay:10.37,2013-03-20 23:24:00,
2013-03-20 18:25:00,37.8,9.8,30.19,NNW,331,1.6,3.5,31,0.00,CLR,,0.00,171.0,WeatherDisplay:10.37,2013-03-20 23:25:00,
2013-03-20 18:27:00,37.7,9.0,30.19,NNW,346,2.9,5.0,30,0.00,CLR,,0.00,167.0,WeatherDisplay:10.37,2013-03-20 23:27:00,
2013-03-20 18:29:00,37.7,9.7,30.19,North,11,3.6,8.0,31,0.00,CLR,,0.00,165.0,WeatherDisplay:10.37,2013-03-20 23:29:00,
2013-03-20 18:31:00,37.7,9.0,30.19,NNW,348,2.6,5.0,30,0.00,CLR,,0.00,153.0,WeatherDisplay:10.37,2013-03-20 23:31:00,
2013-03-20 18:33:00,37.7,9.0,30.18,NW,307,5.3,6.9,30,0.00,CLR,,0.00,153.0,WeatherDisplay:10.37,2013-03-20 23:33:00,
2013-03-20 18:34:00,37.6,8.9,30.18,North,360,5.1,7.0,30,0.00,CLR,,0.00,144.0,WeatherDisplay:10.37,2013-03-20 23:34:00,
2013-03-20 18:36:00,37.6,8.9,30.18,NNW,346,5.7,6.9,30,0.00,CLR,,0.00,132.0,WeatherDisplay:10.37,2013-03-20 23:36:00,
2013-03-20 18:38:00,37.6,9.6,30.18,NNE,19,3.0,6.9,31,0.00,CLR,,0.00,79.0,WeatherDisplay:10.37,2013-03-20 23:38:00,
2013-03-20 18:40:00,37.5,10.3,30.18,North,360,3.4,6.9,32,0.00,CLR,,0.00,88.0,WeatherDisplay:10.37,2013-03-20 23:40:00,
2013-03-20 18:41:00,37.5,9.6,30.18,NNE,16,3.8,4.6,31,0.00,CLR,,0.00,90.0,WeatherDisplay:10.37,2013-03-20 23:41:00,
2013-03-20 18:43:00,37.5,9.6,30.18,North,10,2.7,5.8,31,0.00,CLR,,0.00,97.0,WeatherDisplay:10.37,2013-03-20 23:43:00,
2013-03-20 18:45:00,37.4,10.2,30.18,NNW,340,4.7,7.0,32,0.00,CLR,,0.00,69.0,WeatherDisplay:10.37,2013-03-20 23:45:00,
2013-03-20 18:46:00,37.3,9.4,30.18,NNW,344,2.7,3.5,31,0.00,CLR,,0.00,47.0,WeatherDisplay:10.37,2013-03-20 23:46:00,
2013-03-20 18:48:00,37.3,9.4,30.17,NNW,332,3.6,4.6,31,0.00,CLR,,0.00,51.0,WeatherDisplay:10.37,2013-03-20 23:48:00,
2013-03-20 18:50:00,37.3,9.4,30.17,WNW,292,3.5,4.6,31,0.00,CLR,,0.00,54.0,WeatherDisplay:10.37,2013-03-20 23:50:00,
2013-03-20 18:51:00,37.3,9.4,30.17,North,350,5.5,7.0,31,0.00,FEW,,0.00,40.0,WeatherDisplay:10.37,2013-03-20 23:51:00,
2013-03-20 18:53:00,37.2,8.6,30.17,NNE,13,7.1,10.4,30,0.00,SCT,,0.00,28.0,WeatherDisplay:10.37,2013-03-20 23:53:00,
2013-03-20 18:55:00,37.1,8.5,30.17,NNE,22,5.9,10.0,30,0.00,BKN,,0.00,25.0,WeatherDisplay:10.37,2013-03-20 23:55:00,
2013-03-20 18:56:00,37.1,9.2,30.17,North,11,3.3,5.0,31,0.00,BKN,,0.00,23.0,WeatherDisplay:10.37,2013-03-20 23:56:00,
2013-03-20 18:58:00,37.0,9.1,30.16,NNW,329,2.5,6.0,31,0.00,BKN,,0.00,23.0,WeatherDisplay:10.37,2013-03-20 23:58:00,
2013-03-20 19:00:00,37.0,9.1,30.16,NW,313,2.5,8.0,31,0.00,BKN,,0.00,21.0,WeatherDisplay:10.37,2013-03-21 00:00:00,
2013-03-20 19:02:00,37.0,9.1,30.16,NNW,333,4.0,8.1,31,0.00,BKN,,0.00,19.0,WeatherDisplay:10.37,2013-03-21 00:02:00,
2013-03-20 19:03:00,36.9,9.0,30.16,North,360,2.5,4.6,31,0.00,BKN,,0.00,18.0,WeatherDisplay:10.37,2013-03-21 00:03:00,
2013-03-20 19:05:00,36.7,9.6,30.16,NNE,22,3.3,5.8,32,0.00,BKN,,0.00,18.0,WeatherDisplay:10.37,2013-03-21 00:05:00,
2013-03-20 19:07:00,36.6,9.5,30.16,North,5,5.0,6.9,32,0.00,BKN,,0.00,16.0,WeatherDisplay:10.37,2013-03-21 00:07:00,
2013-03-20 19:09:00,36.6,8.8,30.16,North,350,3.3,5.0,31,0.00,BKN,,0.00,14.0,WeatherDisplay:10.37,2013-03-21 00:09:00,
2013-03-20 19:10:00,36.5,8.7,30.16,NNW,333,2.8,4.6,31,0.00,BKN,,0.00,14.0,WeatherDisplay:10.37,2013-03-21 00:10:00,
2013-03-20 19:11:00,36.5,9.4,30.16,NW,323,2.5,4.6,32,0.00,BKN,,0.00,14.0,WeatherDisplay:10.37,2013-03-21 00:11:00,
2013-03-20 19:12:00,36.4,9.3,30.17,NNE,32,1.9,3.5,32,0.00,BKN,,0.00,12.0,WeatherDisplay:10.37,2013-03-21 00:12:00,
2013-03-20 19:14:00,36.4,9.3,30.17,North,351,3.0,6.0,32,0.00,BKN,,0.00,11.0,WeatherDisplay:10.37,2013-03-21 00:14:00,
2013-03-20 19:15:00,36.2,9.8,30.17,North,350,1.7,3.5,33,0.00,BKN,,0.00,11.0,WeatherDisplay:10.37,2013-03-21 00:15:00,
2013-03-20 19:16:00,36.1,9.7,30.17,North,5,1.7,3.5,33,0.00,BKN,,0.00,11.0,WeatherDisplay:10.37,2013-03-21 00:16:00,
2013-03-20 19:17:00,36.0,8.9,30.17,WNW,302,3.3,4.6,32,0.00,BKN,,0.00,9.0,WeatherDisplay:10.37,2013-03-21 00:17:00,
2013-03-20 19:19:00,36.0,8.9,30.17,NNW,335,4.4,6.9,32,0.00,BKN,,0.00,9.0,WeatherDisplay:10.37,2013-03-21 00:19:00,
2013-03-20 19:21:00,35.9,8.9,30.17,North,360,1.4,3.5,32,0.00,CLR,,0.00,7.0,WeatherDisplay:10.37,2013-03-21 00:21:00,
2013-03-20 19:22:00,35.9,8.9,30.17,North,5,2.4,3.5,32,0.00,CLR,,0.00,7.0,WeatherDisplay:10.37,2013-03-21 00:22:00,
2013-03-20 19:24:00,35.8,8.8,30.17,North,5,2.5,3.5,32,0.00,CLR,,0.00,5.0,WeatherDisplay:10.37,2013-03-21 00:24:00,
2013-03-20 19:26:00,35.9,8.9,30.17,NNW,338,1.3,3.5,32,0.00,CLR,,0.00,5.0,WeatherDisplay:10.37,2013-03-21 00:26:00,
2013-03-20 19:27:00,35.8,9.5,30.17,NNW,338,0.6,3.5,33,0.00,CLR,,0.00,5.0,WeatherDisplay:10.37,2013-03-21 00:27:00,
2013-03-20 19:28:00,35.7,8.7,30.17,NNW,338,2.8,3.5,32,0.00,CLR,,0.00,5.0,WeatherDisplay:10.37,2013-03-21 00:28:00,
2013-03-20 19:30:00,35.7,8.7,30.17,North,351,1.7,3.5,32,0.00,CLR,,0.00,0.0,WeatherDisplay:10.37,2013-03-21 00:30:00,
2013-03-20 19:31:00,35.7,8.7,30.17,North,351,0.8,2.3,32,0.00,CLR,,0.00,0.0,WeatherDisplay:10.37,2013-03-21 00:31:00,
2013-03-20 19:32:00,35.7,8.7,30.17,North,351,0.6,2.3,32,0.00,CLR,,0.00,0.0,WeatherDisplay:10.37,2013-03-21 00:32:00,
2013-03-20 19:33:00,35.5,8.5,30.17,NNW,329,0.1,1.2,32,0.00,CLR,,0.00,0.0,WeatherDisplay:10.37,2013-03-21 00:33:00,
2013-03-20 19:35:00,35.3,9.0,30.17,NNW,329,0.4,1.2,33,0.00,CLR,,0.00,0.0,WeatherDisplay:10.37,2013-03-21 00:35:00,
2013-03-20 19:37:00,35.2,8.9,30.16,NNW,329,1.0,1.2,33,0.00,CLR,,0.00,0.0,WeatherDisplay:10.37,2013-03-21 00:37:00,
2013-03-20 19:38:00,35.1,8.8,30.16,NNW,329,1.6,2.3,33,0.00,CLR,,0.00,0.0,WeatherDisplay:10.37,2013-03-21 00:38:00,
2013-03-20 19:40:00,35.1,8.8,30.17,NNW,329,0.3,2.3,33,0.00,CLR,,0.00,0.0,WeatherDisplay:10.37,2013-03-21 00:40:00,
2013-03-20 19:42:00,35.0,9.4,30.17,NNW,329,0.5,2.3,34,0.00,CLR,,0.00,0.0,WeatherDisplay:10.37,2013-03-21 00:42:00,
2013-03-20 19:43:00,35.0,10.7,30.16,NW,313,0.2,2.3,36,0.00,CLR,,0.00,0.0,WeatherDisplay:10.37,2013-03-21 00:43:00,
2013-03-20 19:45:00,35.0,10.1,30.16,NW,311,0.0,0.0,35,0.00,CLR,,0.00,0.0,WeatherDisplay:10.37,2013-03-21 00:45:00,
2013-03-20 19:47:00,34.9,11.2,30.16,NW,311,0.0,0.0,37,0.00,CLR,,0.00,0.0,WeatherDisplay:10.37,2013-03-21 00:47:00,
2013-03-20 19:48:00,34.9,10.0,30.16,NW,311,0.0,1.2,35,0.00,CLR,,0.00,0.0,WeatherDisplay:10.37,2013-03-21 00:48:00,
2013-03-20 19:51:00,34.5,10.2,30.16,NW,311,0.0,0.0,36,0.00,CLR,,0.00,0.0,WeatherDisplay:10.37,2013-03-21 00:51:00,
2013-03-20 19:52:00,34.4,10.2,30.16,NW,311,0.0,0.0,36,0.00,CLR,,0.00,0.0,WeatherDisplay:10.37,2013-03-21 00:52:00,
2013-03-20 19:53:00,34.3,10.7,30.16,NW,311,0.0,0.0,37,0.00,CLR,,0.00,0.0,WeatherDisplay:10.37,2013-03-21 00:53:00,
2013-03-20 19:57:00,34.1,9.9,30.16,NW,311,0.0,0.0,36,0.00,CLR,,0.00,0.0,WeatherDisplay:10.37,2013-03-21 00:57:00,
2013-03-20 19:58:00,34.0,9.8,30.16,NW,311,0.0,0.0,36,0.00,CLR,,0.00,0.0,WeatherDisplay:10.37,2013-03-21 00:58:00,
2013-03-20 19:59:00,34.0,9.8,30.16,NW,311,0.8,2.0,36,0.00,CLR,,0.00,0.0,WeatherDisplay:10.37,2013-03-21 00:59:00,
2013-03-20 20:02:00,33.6,10.1,30.16,NW,312,0.0,0.0,37,0.00,CLR,,0.00,0.0,WeatherDisplay:10.37,2013-03-21 01:02:00,
2013-03-20 20:03:00,33.5,10.0,30.16,NW,312,0.0,0.0,37,0.00,CLR,,0.00,0.0,WeatherDisplay:10.37,2013-03-21 01:03:00,
2013-03-20 20:04:00,33.4,10.5,30.16,NW,312,0.0,0.0,38,0.00,CLR,,0.00,0.0,WeatherDisplay:10.37,2013-03-21 01:04:00,
2013-03-20 20:07:00,32.9,12.3,30.16,NW,312,0.0,0.0,42,0.00,CLR,,0.00,0.0,WeatherDisplay:10.37,2013-03-21 01:07:00,
2013-03-20 20:08:00,32.9,11.7,30.16,NW,312,0.0,0.0,41,0.00,CLR,,0.00,0.0,WeatherDisplay:10.37,2013-03-21 01:08:00,
2013-03-20 20:09:00,32.8,12.2,30.16,NW,312,0.0,0.0,42,0.00,CLR,,0.00,0.0,WeatherDisplay:10.37,2013-03-21 01:09:00,
2013-03-20 20:12:00,32.5,11.4,30.16,NW,312,0.0,0.0,41,0.00,CLR,,0.00,0.0,WeatherDisplay:10.37,2013-03-21 01:12:00,
2013-03-20 20:13:00,32.4,11.3,30.16,NW,312,0.0,0.0,41,0.00,CLR,,0.00,0.0,WeatherDisplay:10.37,2013-03-21 01:13:00,
2013-03-20 20:14:00,32.0,11.5,30.16,NW,312,0.0,0.0,42,0.00,CLR,,0.00,0.0,WeatherDisplay:10.37,2013-03-21 01:14:00,
2013-03-20 20:18:00,31.6,11.1,30.16,NW,312,0.0,0.0,42,0.00,CLR,,0.00,0.0,WeatherDisplay:10.37,2013-03-21 01:18:00,
2013-03-20 20:19:00,31.6,12.2,30.16,NW,312,0.0,0.0,44,0.00,CLR,,0.00,0.0,WeatherDisplay:10.37,2013-03-21 01:19:00,
2013-03-20 20:23:00,31.7,11.2,30.16,NW,312,0.0,0.0,42,0.00,CLR,,0.00,0.0,WeatherDisplay:10.37,2013-03-21 01:23:00,
2013-03-20 20:24:00,31.5,11.5,30.16,NW,312,0.0,0.0,43,0.00,CLR,,0.00,0.0,WeatherDisplay:10.37,2013-03-21 01:24:00,
2013-03-20 20:28:00,31.4,10.9,30.16,NW,312,0.0,0.0,42,0.00,CLR,,0.00,0.0,WeatherDisplay:10.37,2013-03-21 01:28:00,
2013-03-20 20:29:00,31.4,10.9,30.16,NW,312,0.0,0.0,42,0.00,CLR,,0.00,0.0,WeatherDisplay:10.37,2013-03-21 01:29:00,
2013-03-20 20:33:00,31.4,12.0,30.16,NW,312,0.0,0.0,44,0.00,CLR,,0.00,0.0,WeatherDisplay:10.37,2013-03-21 01:33:00,
2013-03-20 20:34:00,31.4,12.0,30.16,NW,312,0.0,0.0,44,0.00,CLR,,0.00,0.0,WeatherDisplay:10.37,2013-03-21 01:34:00,
2013-03-20 20:38:00,31.1,13.2,30.16,NW,312,0.0,0.0,47,0.00,CLR,,0.00,0.0,WeatherDisplay:10.37,2013-03-21 01:38:00,
2013-03-20 20:39:00,31.0,13.1,30.16,NW,312,0.0,0.0,47,0.00,CLR,,0.00,0.0,WeatherDisplay:10.37,2013-03-21 01:39:00,
2013-03-20 20:44:00,30.3,12.5,30.16,NW,312,0.0,0.0,47,0.00,CLR,,0.00,0.0,WeatherDisplay:10.37,2013-03-21 01:44:00,
2013-03-20 20:49:00,30.4,12.1,30.16,NW,312,0.0,0.0,46,0.00,CLR,,0.00,0.0,WeatherDisplay:10.37,2013-03-21 01:49:00,
2013-03-20 20:54:00,30.4,11.6,30.16,NW,312,0.0,0.0,45,0.00,CLR,,0.00,0.0,WeatherDisplay:10.37,2013-03-21 01:54:00,
2013-03-20 20:55:00,30.3,12.0,30.16,NW,312,0.0,0.0,46,0.00,CLR,,0.00,0.0,WeatherDisplay:10.37,2013-03-21 01:55:00,
2013-03-20 20:59:00,29.4,13.5,30.16,NW,312,0.0,0.0,51,0.00,CLR,,0.00,0.0,WeatherDisplay:10.37,2013-03-21 01:59:00,
2013-03-20 21:00:00,29.4,13.5,30.16,NW,312,0.0,0.0,51,0.00,CLR,,0.00,0.0,WeatherDisplay:10.37,2013-03-21 02:00:00,
2013-03-20 21:04:00,29.3,13.4,30.16,NW,312,0.0,0.0,51,0.00,CLR,,0.00,0.0,WeatherDisplay:10.37,2013-03-21 02:04:00,
2013-03-20 21:05:00,29.3,13.4,30.16,NW,312,0.0,0.0,51,0.00,CLR,,0.00,0.0,WeatherDisplay:10.37,2013-03-21 02:05:00,
2013-03-20 21:10:00,29.4,13.9,30.16,NW,312,0.0,0.0,52,0.00,CLR,,0.00,0.0,WeatherDisplay:10.37,2013-03-21 02:10:00,
2013-03-20 21:15:00,29.8,13.9,30.17,NW,312,0.0,0.0,51,0.00,CLR,,0.00,0.0,WeatherDisplay:10.37,2013-03-21 02:15:00,
2013-03-20 21:20:00,29.9,13.5,30.16,NW,312,0.0,0.0,50,0.00,CLR,,0.00,0.0,WeatherDisplay:10.37,2013-03-21 02:20:00,
2013-03-20 21:25:00,28.8,14.6,30.16,NW,312,0.0,0.0,55,0.00,CLR,,0.00,0.0,WeatherDisplay:10.37,2013-03-21 02:25:00,
2013-03-20 21:26:00,28.7,15.0,30.16,NW,312,0.0,0.0,56,0.00,CLR,,0.00,0.0,WeatherDisplay:10.37,2013-03-21 02:26:00,
2013-03-20 21:30:00,28.6,14.5,30.16,NW,312,0.0,0.0,55,0.00,CLR,,0.00,0.0,WeatherDisplay:10.37,2013-03-21 02:30:00,
2013-03-20 21:31:00,28.5,14.4,30.16,NW,312,0.0,0.0,55,0.00,CLR,,0.00,0.0,WeatherDisplay:10.37,2013-03-21 02:31:00,
2013-03-20 21:35:00,28.5,14.4,30.16,NW,312,0.0,0.0,55,0.00,CLR,,0.00,0.0,WeatherDisplay:10.37,2013-03-21 02:35:00,
2013-03-20 21:36:00,28.5,15.2,30.16,NW,312,0.0,0.0,57,0.00,CLR,,0.00,0.0,WeatherDisplay:10.37,2013-03-21 02:36:00,
2013-03-20 21:37:00,28.5,15.6,30.16,NW,312,0.0,0.0,58,0.00,CLR,,0.00,0.0,WeatherDisplay:10.37,2013-03-21 02:37:00,
2013-03-20 21:40:00,28.5,15.2,30.16,NW,312,0.0,0.0,57,0.00,CLR,,0.00,0.0,WeatherDisplay:10.37,2013-03-21 02:40:00,
2013-03-20 21:41:00,28.6,15.3,30.16,NW,312,0.0,0.0,57,0.00,CLR,,0.00,0.0,WeatherDisplay:10.37,2013-03-21 02:41:00,
2013-03-20 21:42:00,28.6,14.9,30.16,NW,312,0.0,0.0,56,0.00,CLR,,0.00,0.0,WeatherDisplay:10.37,2013-03-21 02:42:00,
2013-03-20 21:45:00,28.5,15.6,30.16,NW,312,0.0,0.0,58,0.00,CLR,,0.00,0.0,WeatherDisplay:10.37,2013-03-21 02:45:00,
2013-03-20 21:46:00,28.4,15.5,30.16,NW,312,0.0,0.0,58,0.00,CLR,,0.00,0.0,WeatherDisplay:10.37,2013-03-21 02:46:00,
2013-03-20 21:47:00,28.4,15.9,30.16,NW,312,0.0,0.0,59,0.00,CLR,,0.00,0.0,WeatherDisplay:10.37,2013-03-21 02:47:00,
2013-03-20 21:50:00,28.4,19.2,30.16,NW,312,0.0,0.0,68,0.00,CLR,,0.00,0.0,WeatherDisplay:10.37,2013-03-21 02:50:00,
2013-03-20 21:52:00,28.9,21.7,30.16,NW,312,0.0,0.0,74,0.00,CLR,,0.00,0.0,WeatherDisplay:10.37,2013-03-21 02:52:00,
2013-03-20 21:56:00,29.0,19.4,30.16,NW,312,0.5,1.2,67,0.00,CLR,,0.00,0.0,WeatherDisplay:10.37,2013-03-21 02:56:00,
2013-03-20 21:57:00,28.7,15.8,30.16,NW,312,0.0,0.0,58,0.00,CLR,,0.00,0.0,WeatherDisplay:10.37,2013-03-21 02:57:00,
2013-03-20 21:58:00,28.7,15.8,30.16,NW,312,0.0,0.0,58,0.00,CLR,,0.00,0.0,WeatherDisplay:10.37,2013-03-21 02:58:00,
2013-03-20 22:01:00,28.2,15.3,30.16,NW,312,0.0,0.0,58,0.00,CLR,,0.00,0.0,WeatherDisplay:10.37,2013-03-21 03:01:00,
2013-03-20 22:02:00,28.1,15.2,30.16,NW,312,0.0,0.0,58,0.00,CLR,,0.00,0.0,WeatherDisplay:10.37,2013-03-21 03:02:00,
2013-03-20 22:03:00,28.0,14.7,30.16,NW,312,0.0,0.0,57,0.00,CLR,,0.00,0.0,WeatherDisplay:10.37,2013-03-21 03:03:00,
2013-03-20 22:06:00,28.0,14.7,30.16,NW,312,0.0,0.0,57,0.00,CLR,,0.00,0.0,WeatherDisplay:10.37,2013-03-21 03:06:00,
2013-03-20 22:07:00,28.1,14.8,30.16,NW,312,0.0,0.0,57,0.00,CLR,,0.00,0.0,WeatherDisplay:10.37,2013-03-21 03:07:00,
2013-03-20 22:08:00,28.2,15.7,30.16,NW,312,0.0,0.0,59,0.00,CLR,,0.00,0.0,WeatherDisplay:10.37,2013-03-21 03:08:00,
2013-03-20 22:09:00,28.2,15.7,30.16,NW,312,0.0,0.0,59,0.00,CLR,,0.00,0.0,WeatherDisplay:10.37,2013-03-21 03:09:00,
2013-03-20 22:12:00,28.3,15.4,30.16,NW,312,0.0,0.0,58,0.00,CLR,,0.00,0.0,WeatherDisplay:10.37,2013-03-21 03:12:00,
2013-03-20 22:13:00,28.3,15.0,30.16,NW,312,0.0,0.0,57,0.00,CLR,,0.00,0.0,WeatherDisplay:10.37,2013-03-21 03:13:00,
2013-03-20 22:14:00,28.3,15.4,30.16,NW,312,0.0,0.0,58,0.00,CLR,,0.00,0.0,WeatherDisplay:10.37,2013-03-21 03:14:00,
2013-03-20 22:17:00,27.9,15.0,30.16,NW,312,0.0,0.0,58,0.00,CLR,,0.00,0.0,WeatherDisplay:10.37,2013-03-21 03:17:00,
2013-03-20 22:18:00,27.9,15.0,30.16,NW,312,0.0,0.0,58,0.00,CLR,,0.00,0.0,WeatherDisplay:10.37,2013-03-21 03:18:00,
2013-03-20 22:19:00,27.8,14.5,30.16,NW,312,0.0,0.0,57,0.00,CLR,,0.00,0.0,WeatherDisplay:10.37,2013-03-21 03:19:00,
2013-03-20 22:23:00,27.9,16.6,30.16,NW,312,0.0,0.0,62,0.00,CLR,,0.00,0.0,WeatherDisplay:10.37,2013-03-21 03:23:00,
2013-03-20 22:24:00,28.0,18.1,30.16,NW,312,0.0,0.0,66,0.00,CLR,,0.00,0.0,WeatherDisplay:10.37,2013-03-21 03:24:00,
2013-03-20 22:28:00,28.0,17.4,30.15,NW,312,0.5,2.3,64,0.00,CLR,,0.00,0.0,WeatherDisplay:10.37,2013-03-21 03:28:00,
2013-03-20 22:29:00,27.8,17.2,30.15,NW,312,0.1,1.2,64,0.00,CLR,,0.00,0.0,WeatherDisplay:10.37,2013-03-21 03:29:00,
2013-03-20 22:33:00,27.3,16.0,30.15,NW,312,0.0,0.0,62,0.00,CLR,,0.00,0.0,WeatherDisplay:10.37,2013-03-21 03:33:00,
2013-03-20 22:34:00,27.2,16.3,30.15,NW,312,0.0,0.0,63,0.00,CLR,,0.00,0.0,WeatherDisplay:10.37,2013-03-21 03:34:00,
2013-03-20 22:38:00,27.3,15.6,30.15,NW,312,0.0,0.0,61,0.00,CLR,,0.00,0.0,WeatherDisplay:10.37,2013-03-21 03:38:00,
2013-03-20 22:40:00,27.1,16.2,30.15,NW,312,0.0,0.0,63,0.00,CLR,,0.00,0.0,WeatherDisplay:10.37,2013-03-21 03:40:00,
2013-03-20 22:43:00,27.0,16.8,30.15,NW,312,0.0,0.0,65,0.00,CLR,,0.00,0.0,WeatherDisplay:10.37,2013-03-21 03:43:00,
2013-03-20 22:45:00,27.1,16.2,30.15,NW,312,0.0,0.0,63,0.00,CLR,,0.00,0.0,WeatherDisplay:10.37,2013-03-21 03:45:00,
2013-03-20 22:48:00,26.8,16.2,30.15,NW,312,0.0,0.0,64,0.00,CLR,,0.00,0.0,WeatherDisplay:10.37,2013-03-21 03:48:00,
2013-03-20 22:49:00,26.7,16.5,30.15,NW,312,0.0,0.0,65,0.00,CLR,,0.00,0.0,WeatherDisplay:10.37,2013-03-21 03:49:00,
2013-03-20 22:50:00,26.8,16.6,30.15,NW,312,0.0,0.0,65,0.00,CLR,,0.00,0.0,WeatherDisplay:10.37,2013-03-21 03:50:00,
2013-03-20 22:53:00,26.9,16.0,30.15,NW,312,0.0,0.0,63,0.00,CLR,,0.00,0.0,WeatherDisplay:10.37,2013-03-21 03:53:00,
2013-03-20 22:54:00,26.9,16.0,30.15,NW,312,0.0,0.0,63,0.00,CLR,,0.00,0.0,WeatherDisplay:10.37,2013-03-21 03:54:00,
2013-03-20 22:55:00,27.0,15.7,30.15,NW,312,0.0,0.0,62,0.00,CLR,,0.00,0.0,WeatherDisplay:10.37,2013-03-21 03:55:00,
2013-03-20 22:58:00,27.3,15.6,30.15,NW,312,0.0,0.0,61,0.00,CLR,,0.00,0.0,WeatherDisplay:10.37,2013-03-21 03:58:00,
2013-03-20 22:59:00,27.3,15.2,30.15,NW,312,0.0,0.0,60,0.00,CLR,,0.00,0.0,WeatherDisplay:10.37,2013-03-21 03:59:00,
2013-03-20 23:00:00,27.3,15.6,30.15,NW,312,0.0,0.0,61,0.00,CLR,,0.00,0.0,WeatherDisplay:10.37,2013-03-21 04:00:00,
2013-03-20 23:05:00,26.6,16.4,30.14,NW,312,0.0,0.0,65,0.00,CLR,,0.00,0.0,WeatherDisplay:10.37,2013-03-21 04:05:00,
2013-03-20 23:10:00,26.5,16.3,30.14,NW,312,0.0,0.0,65,0.00,CLR,,0.00,0.0,WeatherDisplay:10.37,2013-03-21 04:10:00,
2013-03-20 23:15:00,26.8,17.0,30.14,NW,312,0.0,0.0,66,0.00,CLR,,0.00,0.0,WeatherDisplay:10.37,2013-03-21 04:15:00,
2013-03-20 23:16:00,26.8,17.3,30.14,NW,312,0.0,0.0,67,0.00,CLR,,0.00,0.0,WeatherDisplay:10.37,2013-03-21 04:16:00,
2013-03-20 23:20:00,26.9,17.0,30.14,NW,312,0.0,0.0,66,0.00,CLR,,0.00,0.0,WeatherDisplay:10.37,2013-03-21 04:20:00,
2013-03-20 23:21:00,26.7,16.9,30.13,NW,312,0.0,0.0,66,0.00,CLR,,0.00,0.0,WeatherDisplay:10.37,2013-03-21 04:21:00,
2013-03-20 23:25:00,26.3,16.5,30.13,NW,312,0.0,0.0,66,0.00,CLR,,0.00,0.0,WeatherDisplay:10.37,2013-03-21 04:25:00,
2013-03-20 23:26:00,26.1,15.9,30.13,NW,312,0.0,0.0,65,0.00,CLR,,0.00,0.0,WeatherDisplay:10.37,2013-03-21 04:26:00,
2013-03-20 23:30:00,26.3,15.8,30.13,NW,312,0.0,0.0,64,0.00,CLR,,0.00,0.0,WeatherDisplay:10.37,2013-03-21 04:30:00,
2013-03-20 23:32:00,26.4,16.2,30.13,NW,312,0.0,0.0,65,0.00,CLR,,0.00,0.0,WeatherDisplay:10.37,2013-03-21 04:32:00,
2013-03-20 23:35:00,26.2,17.4,30.13,NW,312,0.0,0.0,69,0.00,CLR,,0.00,0.0,WeatherDisplay:10.37,2013-03-21 04:35:00,
2013-03-20 23:36:00,26.1,17.3,30.13,NW,312,0.0,0.0,69,0.00,CLR,,0.00,0.0,WeatherDisplay:10.37,2013-03-21 04:36:00,
2013-03-20 23:37:00,26.1,17.6,30.13,NW,312,0.0,0.0,70,0.00,CLR,,0.00,0.0,WeatherDisplay:10.37,2013-03-21 04:37:00,
2013-03-20 23:38:00,26.1,17.6,30.13,NW,312,0.0,0.0,70,0.00,CLR,,0.00,0.0,WeatherDisplay:10.37,2013-03-21 04:38:00,
2013-03-20 23:40:00,26.0,16.5,30.13,NW,312,0.0,0.0,67,0.00,CLR,,0.00,0.0,WeatherDisplay:10.37,2013-03-21 04:40:00,
2013-03-20 23:42:00,26.0,16.5,30.13,NW,312,0.0,0.0,67,0.00,CLR,,0.00,0.0,WeatherDisplay:10.37,2013-03-21 04:42:00,
2013-03-20 23:43:00,26.0,16.5,30.13,NW,312,0.0,0.0,67,0.00,CLR,,0.00,0.0,WeatherDisplay:10.37,2013-03-21 04:43:00,
2013-03-20 23:46:00,26.2,17.1,30.13,NW,312,0.0,0.0,68,0.00,CLR,,0.00,0.0,WeatherDisplay:10.37,2013-03-21 04:46:00,
2013-03-20 23:47:00,26.2,17.1,30.13,NW,312,0.0,0.0,68,0.00,CLR,,0.00,0.0,WeatherDisplay:10.37,2013-03-21 04:47:00,
2013-03-20 23:48:00,26.2,17.4,30.13,NW,312,0.0,0.0,69,0.00,CLR,,0.00,0.0,WeatherDisplay:10.37,2013-03-21 04:48:00,
2013-03-20 23:51:00,26.0,16.5,30.13,NW,312,1.6,2.3,67,0.00,CLR,,0.00,0.0,WeatherDisplay:10.37,2013-03-21 04:51:00,
2013-03-20 23:52:00,26.0,16.5,30.13,NW,312,0.7,2.3,67,0.00,CLR,,0.00,0.0,WeatherDisplay:10.37,2013-03-21 04:52:00,
2013-03-20 23:54:00,25.9,16.1,30.13,NW,312,0.0,1.2,66,0.00,CLR,,0.00,0.0,WeatherDisplay:10.37,2013-03-21 04:54:00,
2013-03-20 23:57:00,25.8,16.3,30.13,NW,312,0.0,0.0,67,0.00,CLR,,0.00,0.0,WeatherDisplay:10.37,2013-03-21 04:57:00,
2013-03-20 23:58:00,25.8,17.0,30.13,NW,312,0.0,0.0,69,0.00,CLR,,0.00,0.0,WeatherDisplay:10.37,2013-03-21 04:58:00,
2013-03-20 23:59:00,25.8,17.4,30.13,NW,312,0.0,0.0,70,0.00,CLR,,0.00,0.0,WeatherDisplay:10.37,2013-03-21 04:59:00,